| time (UTC) | temp F | wind direction | speed MPH | gust MPH | rain 1hr in | rain 24hr in | rain mn in | humidity % | barometer mb |
| 20260509124004 | 55 | 0 | 0.0 | 0.0 | 0.00 | 0.00 | 0.00 | 75 | 1012.2 |
| 20260509123804 | 55 | 0 | 0.0 | 0.0 | 0.00 | 0.00 | 0.00 | 75 | 1012.1 |
| 20260509123603 | 55 | 0 | 0.0 | 0.0 | 0.00 | 0.00 | 0.00 | 76 | 1012.0 |
| 20260509123403 | 55 | 221 | 0.0 | 0.0 | 0.00 | 0.00 | 0.00 | 78 | 1012.4 |
| 20260509123204 | 55 | 0 | 0.0 | 0.0 | 0.00 | 0.00 | 0.00 | 77 | 1011.9 |
| 20260509123103 | 54 | 221 | 0.0 | 0.0 | 0.00 | 0.00 | 0.00 | 76 | 1012.3 |
| 20260509123020 | 54 | 221 | 0.0 | 0.0 | 0.00 | 0.00 | 0.00 | 74 | 1012.3 |
| 20260509123004 | 55 | 0 | 0.0 | 0.0 | 0.00 | 0.00 | 0.00 | 74 | 1011.9 |
| 20260509122903 | 55 | 221 | 0.0 | 0.0 | 0.00 | 0.00 | 0.00 | 74 | 1012.3 |
| 20260509122803 | 55 | 0 | 0.0 | 0.0 | 0.00 | 0.00 | 0.00 | 74 | 1011.9 |
| 20260509122603 | 55 | 0 | 0.0 | 0.0 | 0.00 | 0.00 | 0.00 | 75 | 1012.0 |
| 20260509122403 | 54 | 0 | 0.0 | 0.0 | 0.00 | 0.00 | 0.00 | 75 | 1012.0 |
| 20260509122204 | 54 | 0 | 0.0 | 0.0 | 0.00 | 0.00 | 0.00 | 76 | 1012.0 |
| 20260509122003 | 54 | 0 | 0.0 | 1.0 | 0.00 | 0.00 | 0.00 | 79 | 1012.0 |
| 20260509121903 | 54 | 88 | 0.0 | 1.0 | 0.00 | 0.00 | 0.00 | 79 | 1012.4 |
| 20260509121804 | 54 | 0 | 0.0 | 1.0 | 0.00 | 0.00 | 0.00 | 79 | 1012.0 |
| 20260509121603 | 54 | 0 | 0.0 | 0.0 | 0.00 | 0.00 | 0.00 | 78 | 1012.0 |
| 20260509121521 | 54 | 15 | 0.0 | 0.0 | 0.00 | 0.00 | 0.00 | 77 | 1012.4 |
| 20260509121403 | 54 | 70 | 0.0 | 0.0 | 0.00 | 0.00 | 0.00 | 78 | 1012.4 |
| 20260509121203 | 54 | 0 | 0.0 | 0.0 | 0.00 | 0.00 | 0.00 | 80 | 1012.0 |
| 20260509121004 | 54 | 0 | 0.0 | 0.0 | 0.00 | 0.00 | 0.00 | 79 | 1012.0 |
| 20260509120905 | 54 | 62 | 0.0 | 0.0 | 0.00 | 0.00 | 0.00 | 79 | 1012.4 |
| 20260509120803 | 54 | 0 | 0.0 | 0.0 | 0.00 | 0.00 | 0.00 | 80 | 1012.0 |
| 20260509120604 | 54 | 0 | 0.0 | 0.0 | 0.00 | 0.00 | 0.00 | 79 | 1012.0 |
| 20260509120403 | 54 | 0 | 0.0 | 0.0 | 0.00 | 0.00 | 0.00 | 80 | 1012.0 |
| 20260509120203 | 54 | 0 | 0.0 | 1.0 | 0.00 | 0.00 | 0.00 | 80 | 1012.0 |
| 20260509120026 | 53 | 62 | 0.0 | 0.0 | 0.00 | 0.00 | 0.00 | 78 | 1012.4 |
| 20260509115603 | 53 | 0 | 0.0 | 0.0 | 0.00 | 0.00 | 0.00 | 80 | 1012.1 |
| 20260509115404 | 53 | 0 | 0.0 | 0.0 | 0.00 | 0.00 | 0.00 | 79 | 1012.1 |
| 20260509115203 | 53 | 0 | 0.0 | 0.0 | 0.00 | 0.00 | 0.00 | 81 | 1012.1 |
| 20260509115003 | 53 | 0 | 0.0 | 0.0 | 0.00 | 0.00 | 0.00 | 82 | 1012.1 |
| 20260509114903 | 53 | 103 | 0.0 | 1.0 | 0.00 | 0.00 | 0.00 | 82 | 1012.5 |
| 20260509114803 | 52 | 0 | 0.0 | 0.0 | 0.00 | 0.00 | 0.00 | 82 | 1012.0 |
| 20260509114531 | 52 | 102 | 0.0 | 0.0 | 0.00 | 0.00 | 0.00 | 80 | 1012.5 |
| 20260509114403 | 52 | 196 | 0.0 | 6.0 | 0.00 | 0.00 | 0.00 | 82 | 1012.5 |
| 20260509114204 | 52 | 0 | 0.0 | 0.0 | 0.00 | 0.00 | 0.00 | 81 | 1012.0 |
| 20260509114003 | 52 | 0 | 0.0 | 0.0 | 0.00 | 0.00 | 0.00 | 82 | 1012.0 |
| 20260509113903 | 52 | 208 | 0.0 | 0.0 | 0.00 | 0.00 | 0.00 | 81 | 1012.4 |
| 20260509113803 | 52 | 0 | 0.0 | 0.0 | 0.00 | 0.00 | 0.00 | 81 | 1012.0 |
| 20260509113603 | 52 | 0 | 0.0 | 0.0 | 0.00 | 0.00 | 0.00 | 81 | 1011.9 |
| 20260509113404 | 52 | 0 | 0.0 | 0.0 | 0.00 | 0.00 | 0.00 | 82 | 1011.9 |
| 20260509113203 | 52 | 0 | 0.0 | 0.0 | 0.00 | 0.00 | 0.00 | 82 | 1011.9 |
| 20260509113036 | 51 | 208 | 0.0 | 0.0 | 0.00 | 0.00 | 0.00 | 82 | 1012.3 |
| 20260509113003 | 52 | 0 | 0.0 | 0.0 | 0.00 | 0.00 | 0.00 | 82 | 1011.9 |
| 20260509112903 | 52 | 208 | 0.0 | 0.0 | 0.00 | 0.00 | 0.00 | 81 | 1012.3 |
| 20260509112804 | 52 | 0 | 0.0 | 0.0 | 0.00 | 0.00 | 0.00 | 82 | 1011.9 |
| 20260509112603 | 52 | 0 | 0.0 | 0.0 | 0.00 | 0.00 | 0.00 | 82 | 1011.8 |
| 20260509112404 | 52 | 0 | 0.0 | 0.0 | 0.00 | 0.00 | 0.00 | 82 | 1011.8 |
| 20260509112204 | 52 | 0 | 0.0 | 0.0 | 0.00 | 0.00 | 0.00 | 82 | 1011.8 |
| 20260509112003 | 52 | 0 | 0.0 | 0.0 | 0.00 | 0.00 | 0.00 | 82 | 1011.8 |
| 20260509111904 | 51 | 205 | 0.0 | 0.0 | 0.00 | 0.00 | 0.00 | 81 | 1012.2 |
| 20260509111804 | 51 | 0 | 0.0 | 0.0 | 0.00 | 0.00 | 0.00 | 81 | 1011.8 |
| 20260509111604 | 51 | 0 | 0.0 | 0.0 | 0.00 | 0.00 | 0.00 | 82 | 1011.8 |
| 20260509111544 | 51 | 205 | 0.0 | 0.0 | 0.00 | 0.00 | 0.00 | 82 | 1012.2 |
| 20260509111507 | 51 | 205 | 0.0 | 0.0 | 0.00 | 0.00 | 0.00 | 82 | 1012.2 |
| 20260509111404 | 51 | 0 | 0.0 | 0.0 | 0.00 | 0.00 | 0.00 | 82 | 1011.7 |
| 20260509111205 | 51 | 0 | 0.0 | 0.0 | 0.00 | 0.00 | 0.00 | 82 | 1011.7 |
| 20260509111003 | 51 | 0 | 0.0 | 0.0 | 0.00 | 0.00 | 0.00 | 82 | 1011.7 |
| 20260509110903 | 51 | 24 | 0.0 | 0.0 | 0.00 | 0.00 | 0.00 | 82 | 1012.1 |
| 20260509110804 | 51 | 0 | 0.0 | 0.0 | 0.00 | 0.00 | 0.00 | 82 | 1011.7 |
| 20260509110603 | 51 | 0 | 0.0 | 0.0 | 0.00 | 0.00 | 0.00 | 82 | 1011.7 |
| 20260509110404 | 51 | 0 | 0.0 | 0.0 | 0.00 | 0.00 | 0.00 | 82 | 1011.7 |
| 20260509110203 | 51 | 0 | 0.0 | 0.0 | 0.00 | 0.00 | 0.00 | 81 | 1011.6 |
| 20260509110104 | 51 | 24 | 0.0 | 0.0 | 0.00 | 0.00 | 0.00 | 82 | 1012.0 |
| 20260509110023 | 51 | 24 | 0.0 | 0.0 | 0.00 | 0.00 | 0.00 | 82 | 1012.0 |
| 20260509110004 | 51 | 0 | 0.0 | 0.0 | 0.00 | 0.00 | 0.00 | 81 | 1011.6 |
| 20260509105903 | 51 | 24 | 0.0 | 0.0 | 0.00 | 0.00 | 0.00 | 82 | 1012.0 |
| 20260509105803 | 51 | 0 | 0.0 | 0.0 | 0.00 | 0.00 | 0.00 | 82 | 1011.6 |
| 20260509105604 | 51 | 0 | 0.0 | 0.0 | 0.00 | 0.00 | 0.00 | 82 | 1011.6 |
| 20260509105404 | 51 | 0 | 0.0 | 0.0 | 0.00 | 0.00 | 0.00 | 82 | 1011.6 |
| 20260509105204 | 51 | 0 | 0.0 | 0.0 | 0.00 | 0.00 | 0.00 | 82 | 1011.5 |
| 20260509105004 | 51 | 0 | 0.0 | 0.0 | 0.00 | 0.00 | 0.00 | 81 | 1011.6 |
| 20260509104904 | 51 | 24 | 0.0 | 0.0 | 0.00 | 0.00 | 0.00 | 81 | 1011.9 |
| 20260509104605 | 51 | 0 | 0.0 | 0.0 | 0.00 | 0.00 | 0.00 | 81 | 1011.6 |
| 20260509104539 | 50 | 24 | 0.0 | 0.0 | 0.00 | 0.00 | 0.00 | 81 | 1011.9 |
| 20260509104403 | 51 | 24 | 0.0 | 0.0 | 0.00 | 0.00 | 0.00 | 81 | 1011.9 |
| 20260509104205 | 51 | 0 | 0.0 | 0.0 | 0.00 | 0.00 | 0.00 | 80 | 1011.5 |
| 20260509104003 | 51 | 0 | 0.0 | 0.0 | 0.00 | 0.00 | 0.00 | 80 | 1011.6 |
| 20260509103903 | 51 | 24 | 0.0 | 0.0 | 0.00 | 0.00 | 0.00 | 80 | 1012.0 |
| 20260509103805 | 51 | 0 | 0.0 | 0.0 | 0.00 | 0.00 | 0.00 | 80 | 1011.6 |
| 20260509103603 | 51 | 0 | 0.0 | 0.0 | 0.00 | 0.00 | 0.00 | 80 | 1011.6 |
| 20260509103204 | 51 | 0 | 0.0 | 0.0 | 0.00 | 0.00 | 0.00 | 80 | 1011.5 |
| 20260509103036 | 51 | 47 | 0.0 | 0.0 | 0.00 | 0.00 | 0.00 | 80 | 1012.0 |
| 20260509103004 | 51 | 0 | 0.0 | 0.0 | 0.00 | 0.00 | 0.00 | 80 | 1011.6 |
| 20260509102904 | 51 | 338 | 0.0 | 0.0 | 0.00 | 0.00 | 0.00 | 80 | 1012.0 |
| 20260509102804 | 51 | 0 | 0.0 | 0.0 | 0.00 | 0.00 | 0.00 | 80 | 1011.6 |
| 20260509102603 | 51 | 0 | 0.0 | 0.0 | 0.00 | 0.00 | 0.00 | 79 | 1011.6 |
| 20260509102004 | 51 | 0 | 0.0 | 0.0 | 0.00 | 0.00 | 0.00 | 79 | 1011.7 |
| 20260509101904 | 51 | 338 | 0.0 | 0.0 | 0.00 | 0.00 | 0.00 | 79 | 1012.0 |
| 20260509101803 | 51 | 0 | 0.0 | 0.0 | 0.00 | 0.00 | 0.00 | 79 | 1011.6 |
| 20260509101605 | 51 | 0 | 0.0 | 0.0 | 0.00 | 0.00 | 0.00 | 80 | 1011.6 |
| 20260509101539 | 51 | 338 | 0.0 | 0.0 | 0.00 | 0.00 | 0.00 | 79 | 1012.0 |
| 20260509101502 | 51 | 338 | 0.0 | 0.0 | 0.00 | 0.00 | 0.00 | 79 | 1012.0 |
| 20260509101403 | 51 | 0 | 0.0 | 0.0 | 0.00 | 0.00 | 0.00 | 79 | 1011.6 |
| 20260509101203 | 51 | 0 | 0.0 | 0.0 | 0.00 | 0.00 | 0.00 | 79 | 1011.5 |
| 20260509101004 | 51 | 0 | 0.0 | 0.0 | 0.00 | 0.00 | 0.00 | 79 | 1011.4 |
| 20260509100903 | 51 | 338 | 0.0 | 0.0 | 0.00 | 0.00 | 0.00 | 79 | 1011.8 |
| 20260509100803 | 51 | 0 | 0.0 | 0.0 | 0.00 | 0.00 | 0.00 | 79 | 1011.5 |
| 20260509100605 | 52 | 0 | 0.0 | 0.0 | 0.00 | 0.00 | 0.00 | 79 | 1011.5 |
| 20260509100404 | 52 | 0 | 0.0 | 0.0 | 0.00 | 0.00 | 0.00 | 79 | 1011.5 |
| 20260509100204 | 52 | 0 | 0.0 | 0.0 | 0.00 | 0.00 | 0.00 | 79 | 1011.3 |
| 20260509100042 | 51 | 338 | 0.0 | 0.0 | 0.00 | 0.00 | 0.00 | 79 | 1011.8 |
| 20260509100006 | 51 | 338 | 0.0 | 0.0 | 0.00 | 0.00 | 0.00 | 79 | 1011.8 |
| 20260509095403 | 52 | 338 | 0.0 | 0.0 | 0.00 | 0.00 | 0.00 | 80 | 1011.7 |
| 20260509095003 | 52 | 0 | 0.0 | 0.0 | 0.00 | 0.00 | 0.00 | 76 | 1011.2 |
| 20260509094903 | 52 | 338 | 0.0 | 0.0 | 0.00 | 0.00 | 0.00 | 74 | 1011.7 |
| 20260509094804 | 52 | 0 | 0.0 | 0.0 | 0.00 | 0.00 | 0.00 | 74 | 1011.3 |
| 20260509094603 | 52 | 0 | 0.0 | 0.0 | 0.00 | 0.00 | 0.00 | 74 | 1011.3 |
| 20260509094549 | 51 | 338 | 0.0 | 0.0 | 0.00 | 0.00 | 0.00 | 73 | 1011.6 |
| 20260509094510 | 51 | 338 | 0.0 | 0.0 | 0.00 | 0.00 | 0.00 | 73 | 1011.7 |
| 20260509094404 | 52 | 338 | 0.0 | 0.0 | 0.00 | 0.00 | 0.00 | 73 | 1011.7 |
| 20260509094205 | 52 | 0 | 0.0 | 0.0 | 0.00 | 0.00 | 0.00 | 74 | 1011.3 |
| 20260509093903 | 52 | 338 | 0.0 | 0.0 | 0.00 | 0.00 | 0.00 | 75 | 1011.7 |
| 20260509093804 | 52 | 0 | 0.0 | 0.0 | 0.00 | 0.00 | 0.00 | 75 | 1011.2 |
| 20260509093404 | 52 | 0 | 0.0 | 0.0 | 0.00 | 0.00 | 0.00 | 75 | 1011.2 |
| 20260509093203 | 52 | 0 | 0.0 | 0.0 | 0.00 | 0.00 | 0.00 | 75 | 1011.3 |
| 20260509093053 | 51 | 338 | 0.0 | 0.0 | 0.00 | 0.00 | 0.00 | 74 | 1011.7 |
| 20260509093024 | 51 | 338 | 0.0 | 0.0 | 0.00 | 0.00 | 0.00 | 74 | 1011.8 |
| 20260509093003 | 52 | 0 | 0.0 | 0.0 | 0.00 | 0.00 | 0.00 | 74 | 1011.4 |
| 20260509092904 | 52 | 338 | 0.0 | 0.0 | 0.00 | 0.00 | 0.00 | 74 | 1011.9 |
| 20260509092804 | 52 | 0 | 0.0 | 0.0 | 0.00 | 0.00 | 0.00 | 74 | 1011.4 |
| 20260509092603 | 52 | 0 | 0.0 | 0.0 | 0.00 | 0.00 | 0.00 | 74 | 1011.4 |
| 20260509092203 | 52 | 0 | 0.0 | 0.0 | 0.00 | 0.00 | 0.00 | 75 | 1011.4 |
| 20260509092004 | 52 | 0 | 0.0 | 0.0 | 0.00 | 0.00 | 0.00 | 76 | 1011.4 |
| 20260509091904 | 52 | 338 | 0.0 | 0.0 | 0.00 | 0.00 | 0.00 | 76 | 1011.9 |
| 20260509091803 | 52 | 0 | 0.0 | 0.0 | 0.00 | 0.00 | 0.00 | 76 | 1011.5 |
| 20260509091604 | 52 | 0 | 0.0 | 0.0 | 0.00 | 0.00 | 0.00 | 77 | 1011.4 |
| 20260509091555 | 51 | 338 | 0.0 | 0.0 | 0.00 | 0.00 | 0.00 | 78 | 1011.9 |
| 20260509091518 | 51 | 338 | 0.0 | 0.0 | 0.00 | 0.00 | 0.00 | 78 | 1011.9 |
| 20260509091403 | 51 | 338 | 0.0 | 0.0 | 0.00 | 0.00 | 0.00 | 78 | 1011.9 |
| 20260509091004 | 52 | 0 | 0.0 | 0.0 | 0.00 | 0.00 | 0.00 | 78 | 1011.5 |
| 20260509090903 | 52 | 338 | 0.0 | 0.0 | 0.00 | 0.00 | 0.00 | 78 | 1011.9 |
| 20260509090803 | 52 | 0 | 0.0 | 0.0 | 0.00 | 0.00 | 0.00 | 78 | 1011.4 |
| 20260509090604 | 52 | 0 | 0.0 | 0.0 | 0.00 | 0.00 | 0.00 | 79 | 1011.4 |
| 20260509090403 | 52 | 0 | 0.0 | 0.0 | 0.00 | 0.00 | 0.00 | 79 | 1011.5 |
| 20260509090203 | 52 | 0 | 0.0 | 0.0 | 0.00 | 0.00 | 0.00 | 79 | 1011.5 |
| 20260509090029 | 51 | 338 | 0.0 | 0.0 | 0.00 | 0.00 | 0.00 | 79 | 1011.9 |
| 20260509090004 | 52 | 0 | 0.0 | 0.0 | 0.00 | 0.00 | 0.00 | 79 | 1011.4 |
| 20260509085903 | 52 | 338 | 0.0 | 0.0 | 0.00 | 0.00 | 0.00 | 78 | 1011.9 |
| 20260509085805 | 52 | 0 | 0.0 | 0.0 | 0.00 | 0.00 | 0.00 | 78 | 1011.5 |
| 20260509085603 | 52 | 0 | 0.0 | 0.0 | 0.00 | 0.00 | 0.00 | 78 | 1011.5 |
| 20260509085204 | 52 | 0 | 0.0 | 0.0 | 0.00 | 0.00 | 0.00 | 78 | 1011.5 |
| 20260509085004 | 52 | 0 | 0.0 | 0.0 | 0.00 | 0.00 | 0.00 | 78 | 1011.6 |
| 20260509084903 | 52 | 338 | 0.0 | 0.0 | 0.00 | 0.00 | 0.00 | 77 | 1012.1 |
| 20260509084804 | 52 | 0 | 0.0 | 0.0 | 0.00 | 0.00 | 0.00 | 77 | 1011.6 |
| 20260509084603 | 52 | 0 | 0.0 | 0.0 | 0.00 | 0.00 | 0.00 | 75 | 1011.7 |
| 20260509084539 | 51 | 338 | 0.0 | 0.0 | 0.00 | 0.00 | 0.00 | 75 | 1012.1 |
| 20260509084004 | 52 | 0 | 0.0 | 0.0 | 0.00 | 0.00 | 0.00 | 76 | 1011.7 |
| 20260509083905 | 52 | 338 | 0.0 | 0.0 | 0.00 | 0.00 | 0.00 | 75 | 1012.1 |
| 20260509083803 | 52 | 0 | 0.0 | 0.0 | 0.00 | 0.00 | 0.00 | 75 | 1011.7 |
| 20260509083604 | 52 | 0 | 0.0 | 0.0 | 0.00 | 0.00 | 0.00 | 74 | 1011.7 |
| 20260509083404 | 52 | 0 | 0.0 | 0.0 | 0.00 | 0.00 | 0.00 | 73 | 1011.7 |
| 20260509083204 | 52 | 0 | 0.0 | 0.0 | 0.00 | 0.00 | 0.00 | 73 | 1011.8 |
| 20260509083046 | 51 | 338 | 0.0 | 0.0 | 0.00 | 0.00 | 0.00 | 73 | 1012.3 |
| 20260509083005 | 51 | 338 | 0.0 | 0.0 | 0.00 | 0.00 | 0.00 | 73 | 1012.3 |
| 20260509082903 | 52 | 338 | 0.0 | 0.0 | 0.00 | 0.00 | 0.00 | 73 | 1012.3 |
| 20260509082804 | 52 | 0 | 0.0 | 0.0 | 0.00 | 0.00 | 0.00 | 74 | 1011.8 |
| 20260509082603 | 52 | 0 | 0.0 | 0.0 | 0.00 | 0.00 | 0.00 | 74 | 1011.8 |
| 20260509082404 | 52 | 0 | 0.0 | 0.0 | 0.00 | 0.00 | 0.00 | 75 | 1011.8 |
| 20260509082204 | 52 | 0 | 0.0 | 0.0 | 0.00 | 0.00 | 0.00 | 75 | 1011.8 |
| 20260509082004 | 52 | 0 | 0.0 | 0.0 | 0.00 | 0.00 | 0.00 | 75 | 1011.8 |
| 20260509081903 | 52 | 338 | 0.0 | 0.0 | 0.00 | 0.00 | 0.00 | 76 | 1012.2 |
| 20260509081603 | 52 | 0 | 0.0 | 0.0 | 0.00 | 0.00 | 0.00 | 75 | 1011.8 |
| 20260509081517 | 51 | 338 | 0.0 | 0.0 | 0.00 | 0.00 | 0.00 | 75 | 1012.2 |
| 20260509081404 | 52 | 0 | 0.0 | 0.0 | 0.00 | 0.00 | 0.00 | 75 | 1011.8 |
| 20260509081204 | 52 | 0 | 0.0 | 0.0 | 0.00 | 0.00 | 0.00 | 74 | 1011.8 |
| 20260509081005 | 52 | 0 | 0.0 | 0.0 | 0.00 | 0.00 | 0.00 | 74 | 1011.8 |
| 20260509080904 | 52 | 338 | 0.0 | 0.0 | 0.00 | 0.00 | 0.00 | 74 | 1012.3 |
| 20260509080804 | 52 | 0 | 0.0 | 0.0 | 0.00 | 0.00 | 0.00 | 74 | 1011.9 |
| 20260509080604 | 52 | 0 | 0.0 | 0.0 | 0.00 | 0.00 | 0.00 | 74 | 1011.9 |
| 20260509080403 | 52 | 0 | 0.0 | 0.0 | 0.00 | 0.00 | 0.00 | 75 | 1011.9 |
| 20260509080204 | 52 | 0 | 0.0 | 0.0 | 0.00 | 0.00 | 0.00 | 74 | 1011.9 |
| 20260509080057 | 51 | 338 | 0.0 | 0.0 | 0.00 | 0.00 | 0.00 | 75 | 1012.4 |
| 20260509080019 | 51 | 338 | 0.0 | 0.0 | 0.00 | 0.00 | 0.00 | 75 | 1012.4 |
| 20260509080003 | 52 | 0 | 0.0 | 0.0 | 0.00 | 0.00 | 0.00 | 75 | 1011.9 |
| 20260509075903 | 52 | 338 | 0.0 | 0.0 | 0.00 | 0.00 | 0.00 | 75 | 1012.4 |
| 20260509075804 | 52 | 0 | 0.0 | 0.0 | 0.00 | 0.00 | 0.00 | 75 | 1011.9 |
| 20260509075404 | 52 | 0 | 0.0 | 0.0 | 0.00 | 0.00 | 0.00 | 75 | 1011.9 |
| 20260509075203 | 52 | 0 | 0.0 | 0.0 | 0.00 | 0.00 | 0.00 | 75 | 1011.9 |
| 20260509075004 | 52 | 0 | 0.0 | 0.0 | 0.00 | 0.00 | 0.00 | 75 | 1011.9 |
| 20260509074903 | 52 | 338 | 0.0 | 0.0 | 0.00 | 0.00 | 0.00 | 75 | 1012.4 |
| 20260509074604 | 52 | 0 | 0.0 | 0.0 | 0.00 | 0.00 | 0.00 | 75 | 1011.9 |
| 20260509074526 | 51 | 338 | 0.0 | 0.0 | 0.00 | 0.00 | 0.00 | 75 | 1012.4 |
| 20260509074403 | 52 | 338 | 0.0 | 0.0 | 0.00 | 0.00 | 0.00 | 75 | 1012.4 |
| 20260509074205 | 52 | 0 | 0.0 | 0.0 | 0.00 | 0.00 | 0.00 | 75 | 1012.0 |
| 20260509074004 | 52 | 0 | 0.0 | 0.0 | 0.00 | 0.00 | 0.00 | 75 | 1012.0 |
| 20260509073903 | 52 | 338 | 0.0 | 0.0 | 0.00 | 0.00 | 0.00 | 75 | 1012.5 |
| 20260509073803 | 52 | 0 | 0.0 | 0.0 | 0.00 | 0.00 | 0.00 | 75 | 1012.0 |
| 20260509073605 | 52 | 0 | 0.0 | 0.0 | 0.00 | 0.00 | 0.00 | 75 | 1012.0 |
| 20260509073403 | 52 | 0 | 0.0 | 0.0 | 0.00 | 0.00 | 0.00 | 75 | 1012.0 |
| 20260509073204 | 52 | 0 | 0.0 | 0.0 | 0.00 | 0.00 | 0.00 | 75 | 1011.9 |
| 20260509073027 | 51 | 202 | 0.0 | 0.0 | 0.00 | 0.00 | 0.00 | 75 | 1012.5 |
| 20260509073005 | 52 | 0 | 0.0 | 0.0 | 0.00 | 0.00 | 0.00 | 76 | 1012.0 |
| 20260509072903 | 52 | 202 | 0.0 | 0.0 | 0.00 | 0.00 | 0.00 | 75 | 1012.5 |
| 20260509072603 | 52 | 0 | 0.0 | 0.0 | 0.00 | 0.00 | 0.00 | 76 | 1012.0 |
| 20260509072404 | 52 | 0 | 0.0 | 0.0 | 0.00 | 0.00 | 0.00 | 76 | 1012.0 |
| 20260509072204 | 51 | 0 | 0.0 | 0.0 | 0.00 | 0.00 | 0.00 | 76 | 1012.1 |
| 20260509072003 | 51 | 0 | 0.0 | 0.0 | 0.00 | 0.00 | 0.00 | 76 | 1012.0 |
| 20260509071904 | 51 | 202 | 0.0 | 0.0 | 0.00 | 0.00 | 0.00 | 76 | 1012.5 |
| 20260509071804 | 51 | 0 | 0.0 | 0.0 | 0.00 | 0.00 | 0.00 | 76 | 1012.0 |
| 20260509071603 | 51 | 0 | 0.0 | 0.0 | 0.00 | 0.00 | 0.00 | 77 | 1012.0 |
| 20260509071531 | 51 | 202 | 0.0 | 0.0 | 0.00 | 0.00 | 0.00 | 77 | 1012.4 |
| 20260509071404 | 51 | 0 | 0.0 | 0.0 | 0.00 | 0.00 | 0.00 | 78 | 1012.0 |
| 20260509071204 | 51 | 0 | 0.0 | 0.0 | 0.00 | 0.00 | 0.00 | 78 | 1012.0 |
| 20260509070903 | 51 | 202 | 0.0 | 3.0 | 0.00 | 0.00 | 0.00 | 78 | 1012.4 |
| 20260509070804 | 51 | 0 | 0.0 | 3.0 | 0.00 | 0.00 | 0.00 | 78 | 1011.9 |
| 20260509070603 | 50 | 0 | 0.0 | 3.0 | 0.00 | 0.00 | 0.00 | 80 | 1011.9 |
| 20260509070405 | 50 | 0 | 0.0 | 0.0 | 0.00 | 0.00 | 0.00 | 81 | 1012.0 |
| 20260509070203 | 50 | 0 | 0.0 | 0.0 | 0.00 | 0.00 | 0.00 | 80 | 1012.0 |
| 20260509070043 | 50 | 202 | 0.0 | 0.0 | 0.00 | 0.00 | 0.00 | 82 | 1012.4 |
| 20260509070005 | 50 | 202 | 0.0 | 0.0 | 0.00 | 0.00 | 0.00 | 82 | 1012.4 |
| 20260509065904 | 50 | 115 | 0.0 | 0.0 | 0.00 | 0.00 | 0.00 | 82 | 1012.3 |
| 20260509065805 | 50 | 0 | 0.0 | 0.0 | 0.00 | 0.00 | 0.00 | 81 | 1011.9 |
| 20260509065603 | 50 | 0 | 0.0 | 0.0 | 0.00 | 0.00 | 0.00 | 84 | 1011.9 |
| 20260509065204 | 50 | 0 | 0.0 | 0.0 | 0.00 | 0.00 | 0.00 | 85 | 1011.9 |
| 20260509065004 | 50 | 0 | 0.0 | 0.0 | 0.00 | 0.00 | 0.00 | 86 | 1011.9 |
| 20260509064903 | 50 | 114 | 0.0 | 5.0 | 0.00 | 0.00 | 0.00 | 86 | 1012.4 |
| 20260509064804 | 50 | 0 | 0.0 | 5.0 | 0.00 | 0.00 | 0.00 | 86 | 1011.9 |
| 20260509064603 | 50 | 0 | 0.0 | 5.0 | 0.00 | 0.00 | 0.00 | 85 | 1011.9 |
| 20260509064545 | 49 | 114 | 0.0 | 0.0 | 0.00 | 0.00 | 0.00 | 85 | 1012.3 |
| 20260509064510 | 49 | 114 | 0.0 | 0.0 | 0.00 | 0.00 | 0.00 | 88 | 1012.3 |
| 20260509064403 | 49 | 129 | 0.0 | 0.0 | 0.00 | 0.00 | 0.00 | 88 | 1012.4 |
| 20260509064204 | 49 | 0 | 0.0 | 0.0 | 0.00 | 0.00 | 0.00 | 88 | 1011.9 |
| 20260509064003 | 49 | 0 | 0.0 | 0.0 | 0.00 | 0.00 | 0.00 | 88 | 1011.9 |
| 20260509063903 | 49 | 129 | 0.0 | 0.0 | 0.00 | 0.00 | 0.00 | 89 | 1012.3 |
| 20260509063804 | 49 | 0 | 0.0 | 0.0 | 0.00 | 0.00 | 0.00 | 89 | 1011.9 |
| 20260509063604 | 49 | 0 | 0.0 | 0.0 | 0.00 | 0.00 | 0.00 | 88 | 1012.0 |
| 20260509063404 | 49 | 129 | 0.0 | 0.0 | 0.00 | 0.00 | 0.00 | 88 | 1012.5 |
| 20260509063204 | 49 | 0 | 0.0 | 0.0 | 0.00 | 0.00 | 0.00 | 88 | 1012.0 |
| 20260509063052 | 49 | 129 | 0.0 | 0.0 | 0.00 | 0.00 | 0.00 | 88 | 1012.5 |
| 20260509063016 | 49 | 129 | 0.0 | 0.0 | 0.00 | 0.00 | 0.00 | 88 | 1012.5 |
| 20260509063004 | 49 | 0 | 0.0 | 0.0 | 0.00 | 0.00 | 0.00 | 89 | 1012.1 |
| 20260509062904 | 49 | 129 | 0.0 | 0.0 | 0.00 | 0.00 | 0.00 | 89 | 1012.5 |
| 20260509062803 | 49 | 0 | 0.0 | 0.0 | 0.00 | 0.00 | 0.00 | 89 | 1012.1 |
| 20260509062604 | 49 | 0 | 0.0 | 0.0 | 0.00 | 0.00 | 0.00 | 89 | 1012.1 |
| 20260509062404 | 49 | 0 | 0.0 | 0.0 | 0.00 | 0.00 | 0.00 | 89 | 1012.1 |
| 20260509062203 | 49 | 0 | 0.0 | 0.0 | 0.00 | 0.00 | 0.00 | 90 | 1012.1 |
| 20260509061903 | 49 | 129 | 0.0 | 0.0 | 0.00 | 0.00 | 0.00 | 90 | 1012.6 |
| 20260509061604 | 49 | 0 | 0.0 | 0.0 | 0.00 | 0.00 | 0.00 | 90 | 1012.1 |
| 20260509061528 | 48 | 129 | 0.0 | 0.0 | 0.00 | 0.00 | 0.00 | 90 | 1012.6 |
| 20260509061404 | 49 | 0 | 0.0 | 0.0 | 0.00 | 0.00 | 0.00 | 90 | 1012.2 |
| 20260509061004 | 49 | 0 | 0.0 | 0.0 | 0.00 | 0.00 | 0.00 | 90 | 1012.3 |
| 20260509060903 | 49 | 129 | 0.0 | 0.0 | 0.00 | 0.00 | 0.00 | 90 | 1012.7 |
| 20260509060804 | 49 | 0 | 0.0 | 0.0 | 0.00 | 0.00 | 0.00 | 90 | 1012.3 |
| 20260509060604 | 48 | 0 | 0.0 | 0.0 | 0.00 | 0.00 | 0.00 | 90 | 1012.2 |
| 20260509060404 | 48 | 129 | 0.0 | 0.0 | 0.00 | 0.00 | 0.00 | 90 | 1012.8 |
| 20260509060205 | 48 | 0 | 0.0 | 0.0 | 0.00 | 0.00 | 0.00 | 89 | 1012.4 |
| 20260509060028 | 48 | 129 | 0.0 | 0.0 | 0.00 | 0.00 | 0.00 | 90 | 1012.8 |
| 20260509060004 | 48 | 0 | 0.0 | 0.0 | 0.00 | 0.00 | 0.00 | 90 | 1012.4 |
| 20260509055804 | 48 | 0 | 0.0 | 0.0 | 0.00 | 0.00 | 0.00 | 90 | 1012.4 |
| 20260509055605 | 48 | 0 | 0.0 | 0.0 | 0.00 | 0.00 | 0.00 | 89 | 1012.4 |
| 20260509055404 | 48 | 0 | 0.0 | 0.0 | 0.00 | 0.00 | 0.00 | 89 | 1012.4 |
| 20260509055205 | 48 | 0 | 0.0 | 0.0 | 0.00 | 0.00 | 0.00 | 89 | 1012.4 |
| 20260509055004 | 48 | 0 | 0.0 | 0.0 | 0.00 | 0.00 | 0.00 | 89 | 1012.5 |
| 20260509054903 | 49 | 129 | 0.0 | 0.0 | 0.00 | 0.00 | 0.00 | 89 | 1013.0 |
| 20260509054804 | 48 | 0 | 0.0 | 0.0 | 0.00 | 0.00 | 0.00 | 89 | 1012.6 |
| 20260509054604 | 49 | 0 | 0.0 | 0.0 | 0.00 | 0.00 | 0.00 | 89 | 1012.6 |
| 20260509054545 | 48 | 129 | 0.0 | 0.0 | 0.00 | 0.00 | 0.00 | 89 | 1013.0 |
| 20260509054500 | 48 | 129 | 0.0 | 0.0 | 0.00 | 0.00 | 0.00 | 89 | 1013.0 |
| 20260509054404 | 49 | 0 | 0.0 | 0.0 | 0.00 | 0.00 | 0.00 | 88 | 1012.6 |
| 20260509054204 | 49 | 0 | 0.0 | 0.0 | 0.00 | 0.00 | 0.00 | 88 | 1012.6 |
| 20260509054004 | 49 | 0 | 0.0 | 0.0 | 0.00 | 0.00 | 0.00 | 88 | 1012.6 |
| 20260509053804 | 49 | 0 | 0.0 | 0.0 | 0.00 | 0.00 | 0.00 | 88 | 1012.7 |
| 20260509053605 | 49 | 0 | 0.0 | 0.0 | 0.00 | 0.00 | 0.00 | 88 | 1012.7 |
| 20260509053204 | 49 | 0 | 0.0 | 0.0 | 0.00 | 0.00 | 0.00 | 88 | 1012.8 |
| 20260509053134 | 48 | 129 | 0.0 | 0.0 | 0.00 | 0.00 | 0.00 | 88 | 1013.2 |
| 20260509053008 | 48 | 129 | 0.0 | 0.0 | 0.00 | 0.00 | 0.00 | 87 | 1013.2 |
| 20260509053004 | 49 | 0 | 0.0 | 0.0 | 0.00 | 0.00 | 0.00 | 87 | 1012.7 |
| 20260509052903 | 49 | 129 | 0.0 | 0.0 | 0.00 | 0.00 | 0.00 | 87 | 1013.2 |
| 20260509052803 | 49 | 0 | 0.0 | 0.0 | 0.00 | 0.00 | 0.00 | 87 | 1012.7 |
| 20260509052604 | 49 | 0 | 0.0 | 0.0 | 0.00 | 0.00 | 0.00 | 87 | 1012.8 |
| 20260509052404 | 49 | 0 | 0.0 | 0.0 | 0.00 | 0.00 | 0.00 | 87 | 1012.7 |
| 20260509052204 | 49 | 0 | 0.0 | 0.0 | 0.00 | 0.00 | 0.00 | 87 | 1012.7 |
| 20260509052004 | 49 | 0 | 0.0 | 0.0 | 0.00 | 0.00 | 0.00 | 87 | 1012.8 |
| 20260509051903 | 49 | 129 | 0.0 | 0.0 | 0.00 | 0.00 | 0.00 | 87 | 1013.2 |
| 20260509051803 | 49 | 0 | 0.0 | 0.0 | 0.00 | 0.00 | 0.00 | 87 | 1012.7 |
| 20260509051604 | 49 | 0 | 0.0 | 0.0 | 0.00 | 0.00 | 0.00 | 86 | 1012.7 |
| 20260509051551 | 49 | 129 | 0.0 | 0.0 | 0.00 | 0.00 | 0.00 | 86 | 1013.2 |
| 20260509051516 | 49 | 129 | 0.0 | 0.0 | 0.00 | 0.00 | 0.00 | 86 | 1013.2 |
| 20260509051404 | 49 | 0 | 0.0 | 0.0 | 0.00 | 0.00 | 0.00 | 86 | 1012.8 |
| 20260509051203 | 49 | 0 | 0.0 | 0.0 | 0.00 | 0.00 | 0.00 | 86 | 1012.9 |
| 20260509050904 | 50 | 129 | 0.0 | 0.0 | 0.00 | 0.00 | 0.00 | 86 | 1013.3 |
| 20260509050803 | 50 | 0 | 0.0 | 0.0 | 0.00 | 0.00 | 0.00 | 86 | 1012.9 |
| 20260509050604 | 50 | 0 | 0.0 | 0.0 | 0.00 | 0.00 | 0.00 | 86 | 1012.9 |
| 20260509050404 | 50 | 129 | 0.0 | 0.0 | 0.00 | 0.00 | 0.00 | 85 | 1013.3 |
| 20260509050035 | 49 | 129 | 0.0 | 0.0 | 0.00 | 0.00 | 0.00 | 85 | 1013.3 |
| 20260509050004 | 50 | 0 | 0.0 | 0.0 | 0.00 | 0.00 | 0.00 | 85 | 1012.9 |
| 20260509045904 | 50 | 129 | 0.0 | 0.0 | 0.00 | 0.00 | 0.00 | 85 | 1013.3 |
| 20260509045805 | 50 | 0 | 0.0 | 0.0 | 0.00 | 0.00 | 0.00 | 85 | 1012.9 |
| 20260509045405 | 50 | 0 | 0.0 | 0.0 | 0.00 | 0.00 | 0.00 | 85 | 1012.9 |
| 20260509045204 | 50 | 0 | 0.0 | 0.0 | 0.00 | 0.00 | 0.00 | 85 | 1012.9 |
| 20260509044903 | 50 | 129 | 0.0 | 0.0 | 0.00 | 0.00 | 0.00 | 84 | 1013.4 |
| 20260509044803 | 50 | 0 | 0.0 | 0.0 | 0.00 | 0.00 | 0.00 | 84 | 1012.9 |
| 20260509044604 | 50 | 0 | 0.0 | 0.0 | 0.00 | 0.00 | 0.00 | 84 | 1013.0 |
| 20260509044526 | 50 | 129 | 0.0 | 0.0 | 0.00 | 0.00 | 0.00 | 84 | 1013.4 |
| 20260509044405 | 50 | 0 | 0.0 | 0.0 | 0.00 | 0.00 | 0.00 | 84 | 1012.9 |
| 20260509044204 | 50 | 0 | 0.0 | 0.0 | 0.00 | 0.00 | 0.00 | 84 | 1012.9 |
| 20260509044005 | 50 | 0 | 0.0 | 0.0 | 0.00 | 0.00 | 0.00 | 84 | 1012.8 |
| 20260509043904 | 50 | 129 | 0.0 | 0.0 | 0.00 | 0.00 | 0.00 | 84 | 1013.3 |
| 20260509043804 | 50 | 0 | 0.0 | 0.0 | 0.00 | 0.00 | 0.00 | 84 | 1012.8 |
| 20260509043404 | 50 | 0 | 0.0 | 0.0 | 0.00 | 0.00 | 0.00 | 83 | 1012.8 |
| 20260509043204 | 50 | 0 | 0.0 | 0.0 | 0.00 | 0.00 | 0.00 | 83 | 1012.8 |
| 20260509043036 | 50 | 129 | 0.0 | 0.0 | 0.00 | 0.00 | 0.00 | 82 | 1013.3 |
| 20260509042903 | 51 | 129 | 0.0 | 0.0 | 0.00 | 0.00 | 0.00 | 83 | 1013.2 |
| 20260509042804 | 51 | 0 | 0.0 | 0.0 | 0.00 | 0.00 | 0.00 | 83 | 1012.8 |
| 20260509042605 | 51 | 0 | 0.0 | 0.0 | 0.00 | 0.00 | 0.00 | 83 | 1012.8 |
| 20260509042404 | 51 | 129 | 0.0 | 0.0 | 0.00 | 0.00 | 0.00 | 82 | 1013.3 |
| 20260509042005 | 51 | 0 | 0.0 | 0.0 | 0.00 | 0.00 | 0.00 | 82 | 1012.9 |
| 20260509041904 | 51 | 129 | 0.0 | 0.0 | 0.00 | 0.00 | 0.00 | 82 | 1013.3 |
| 20260509041604 | 51 | 0 | 0.0 | 0.0 | 0.00 | 0.00 | 0.00 | 81 | 1013.0 |
| 20260509041545 | 50 | 129 | 0.0 | 0.0 | 0.00 | 0.00 | 0.00 | 81 | 1013.5 |
| 20260509041510 | 50 | 129 | 0.0 | 0.0 | 0.00 | 0.00 | 0.00 | 81 | 1013.5 |
| 20260509041404 | 51 | 0 | 0.0 | 0.0 | 0.00 | 0.00 | 0.00 | 81 | 1013.0 |
| 20260509041205 | 51 | 0 | 0.0 | 0.0 | 0.00 | 0.00 | 0.00 | 81 | 1013.0 |
| 20260509041004 | 51 | 0 | 0.0 | 0.0 | 0.00 | 0.00 | 0.00 | 81 | 1013.0 |
| 20260509040804 | 51 | 0 | 0.0 | 0.0 | 0.00 | 0.00 | 0.00 | 81 | 1013.0 |
| 20260509040604 | 51 | 0 | 0.0 | 0.0 | 0.00 | 0.00 | 0.00 | 80 | 1013.0 |
| 20260509040404 | 51 | 0 | 0.0 | 0.0 | 0.00 | 0.00 | 0.00 | 80 | 1013.1 |
| 20260509040205 | 51 | 0 | 0.0 | 0.0 | 0.00 | 0.00 | 0.00 | 80 | 1013.0 |
| 20260509040109 | 51 | 129 | 0.0 | 0.0 | 0.00 | 0.00 | 0.00 | 80 | 1013.4 |
| 20260509040016 | 51 | 129 | 0.0 | 0.0 | 0.00 | 0.00 | 0.00 | 80 | 1013.4 |
| 20260509040005 | 51 | 0 | 0.0 | 0.0 | 0.00 | 0.00 | 0.00 | 80 | 1013.0 |
| 20260509035903 | 51 | 129 | 0.0 | 0.0 | 0.00 | 0.00 | 0.00 | 79 | 1013.4 |
| 20260509035805 | 51 | 0 | 0.0 | 0.0 | 0.00 | 0.00 | 0.00 | 79 | 1013.0 |
| 20260509035605 | 52 | 0 | 0.0 | 0.0 | 0.00 | 0.00 | 0.00 | 79 | 1013.0 |
| 20260509035404 | 52 | 0 | 0.0 | 0.0 | 0.00 | 0.00 | 0.00 | 79 | 1013.0 |
| 20260509035004 | 52 | 0 | 0.0 | 0.0 | 0.00 | 0.00 | 0.00 | 78 | 1013.0 |
| 20260509034904 | 52 | 129 | 0.0 | 0.0 | 0.00 | 0.00 | 0.00 | 78 | 1013.5 |
| 20260509034804 | 52 | 0 | 0.0 | 0.0 | 0.00 | 0.00 | 0.00 | 78 | 1013.1 |
| 20260509034604 | 52 | 0 | 0.0 | 0.0 | 0.00 | 0.00 | 0.00 | 78 | 1013.1 |
| 20260509034541 | 51 | 129 | 0.0 | 0.0 | 0.00 | 0.00 | 0.00 | 78 | 1013.5 |
| 20260509034505 | 51 | 129 | 0.0 | 0.0 | 0.00 | 0.00 | 0.00 | 78 | 1013.5 |
| 20260509034404 | 52 | 0 | 0.0 | 0.0 | 0.00 | 0.00 | 0.00 | 78 | 1013.1 |
| 20260509034204 | 52 | 0 | 0.0 | 0.0 | 0.00 | 0.00 | 0.00 | 77 | 1013.0 |
| 20260509034004 | 52 | 0 | 0.0 | 0.0 | 0.00 | 0.00 | 0.00 | 77 | 1013.1 |
| 20260509033903 | 52 | 129 | 0.0 | 0.0 | 0.00 | 0.00 | 0.00 | 77 | 1013.5 |
| 20260509033804 | 52 | 0 | 0.0 | 0.0 | 0.00 | 0.00 | 0.00 | 77 | 1013.1 |
| 20260509033603 | 52 | 0 | 0.0 | 0.0 | 0.00 | 0.00 | 0.00 | 77 | 1013.0 |
| 20260509033404 | 53 | 0 | 0.0 | 0.0 | 0.00 | 0.00 | 0.00 | 76 | 1013.1 |
| 20260509033043 | 52 | 129 | 0.0 | 0.0 | 0.00 | 0.00 | 0.00 | 76 | 1013.5 |
| 20260509033007 | 52 | 129 | 0.0 | 0.0 | 0.00 | 0.00 | 0.00 | 76 | 1013.5 |
| 20260509033005 | 53 | 0 | 0.0 | 0.0 | 0.00 | 0.00 | 0.00 | 76 | 1013.0 |
| 20260509032904 | 53 | 129 | 0.0 | 0.0 | 0.00 | 0.00 | 0.00 | 76 | 1013.5 |
| 20260509032804 | 53 | 0 | 0.0 | 0.0 | 0.00 | 0.00 | 0.00 | 75 | 1013.0 |
| 20260509032605 | 53 | 0 | 0.0 | 0.0 | 0.00 | 0.00 | 0.00 | 75 | 1013.1 |
| 20260509032404 | 53 | 0 | 0.0 | 0.0 | 0.00 | 0.00 | 0.00 | 74 | 1013.2 |
| 20260509032004 | 54 | 0 | 0.0 | 0.0 | 0.00 | 0.00 | 0.00 | 74 | 1013.1 |
| 20260509031903 | 54 | 129 | 0.0 | 0.0 | 0.00 | 0.00 | 0.00 | 74 | 1013.6 |
| 20260509031603 | 54 | 0 | 0.0 | 0.0 | 0.00 | 0.00 | 0.00 | 73 | 1013.1 |
| 20260509031558 | 53 | 129 | 0.0 | 0.0 | 0.00 | 0.00 | 0.00 | 73 | 1013.6 |
| 20260509031520 | 54 | 129 | 0.0 | 0.0 | 0.00 | 0.00 | 0.00 | 73 | 1013.6 |
| 20260509031204 | 54 | 0 | 0.0 | 0.0 | 0.00 | 0.00 | 0.00 | 72 | 1013.2 |
| 20260509031005 | 54 | 0 | 0.0 | 0.0 | 0.00 | 0.00 | 0.00 | 72 | 1013.2 |
| 20260509030904 | 55 | 129 | 0.0 | 0.0 | 0.00 | 0.00 | 0.00 | 73 | 1013.7 |
| 20260509030805 | 55 | 0 | 0.0 | 0.0 | 0.00 | 0.00 | 0.00 | 73 | 1013.2 |
| 20260509030604 | 55 | 0 | 0.0 | 0.0 | 0.00 | 0.00 | 0.00 | 72 | 1013.2 |
| 20260509030204 | 55 | 0 | 0.0 | 0.0 | 0.00 | 0.00 | 0.00 | 71 | 1013.3 |
| 20260509030033 | 55 | 129 | 0.0 | 0.0 | 0.00 | 0.00 | 0.00 | 71 | 1013.7 |
| 20260509030004 | 55 | 0 | 0.0 | 0.0 | 0.00 | 0.00 | 0.00 | 71 | 1013.3 |
| 20260509025904 | 55 | 129 | 0.0 | 0.0 | 0.00 | 0.00 | 0.00 | 71 | 1013.7 |
| 20260509025604 | 55 | 0 | 0.0 | 0.0 | 0.00 | 0.00 | 0.00 | 72 | 1013.2 |
| 20260509025404 | 55 | 129 | 0.0 | 0.0 | 0.00 | 0.00 | 0.00 | 72 | 1013.7 |
| 20260509025004 | 55 | 0 | 0.0 | 0.0 | 0.00 | 0.00 | 0.00 | 72 | 1013.2 |
| 20260509024804 | 55 | 0 | 0.0 | 0.0 | 0.00 | 0.00 | 0.00 | 72 | 1013.3 |
| 20260509024605 | 55 | 0 | 0.0 | 0.0 | 0.00 | 0.00 | 0.00 | 71 | 1013.3 |
| 20260509024544 | 55 | 129 | 0.0 | 0.0 | 0.00 | 0.00 | 0.00 | 71 | 1013.7 |
| 20260509024504 | 55 | 129 | 0.0 | 0.0 | 0.00 | 0.00 | 0.00 | 71 | 1013.7 |
| 20260509024403 | 55 | 129 | 0.0 | 0.0 | 0.00 | 0.00 | 0.00 | 70 | 1013.8 |
| 20260509024204 | 55 | 0 | 0.0 | 0.0 | 0.00 | 0.00 | 0.00 | 70 | 1013.3 |
| 20260509024004 | 56 | 0 | 0.0 | 0.0 | 0.00 | 0.00 | 0.00 | 71 | 1013.2 |
| 20260509023903 | 55 | 129 | 0.0 | 0.0 | 0.00 | 0.00 | 0.00 | 71 | 1013.7 |
| 20260509023803 | 56 | 0 | 0.0 | 0.0 | 0.00 | 0.00 | 0.00 | 71 | 1013.2 |
| 20260509023604 | 56 | 0 | 0.0 | 0.0 | 0.00 | 0.00 | 0.00 | 71 | 1013.2 |
| 20260509023204 | 56 | 0 | 0.0 | 0.0 | 0.00 | 0.00 | 0.00 | 72 | 1013.2 |
| 20260509023024 | 55 | 129 | 0.0 | 0.0 | 0.00 | 0.00 | 0.00 | 72 | 1013.6 |
| 20260509023004 | 56 | 0 | 0.0 | 0.0 | 0.00 | 0.00 | 0.00 | 72 | 1013.2 |
| 20260509022904 | 56 | 129 | 0.0 | 0.0 | 0.00 | 0.00 | 0.00 | 71 | 1013.7 |
| 20260509022805 | 56 | 0 | 0.0 | 0.0 | 0.00 | 0.00 | 0.00 | 71 | 1013.2 |
| 20260509022604 | 56 | 0 | 0.0 | 0.0 | 0.00 | 0.00 | 0.00 | 69 | 1013.3 |
| 20260509022404 | 56 | 0 | 0.0 | 0.0 | 0.00 | 0.00 | 0.00 | 68 | 1013.3 |
| 20260509022204 | 56 | 0 | 0.0 | 0.0 | 0.00 | 0.00 | 0.00 | 69 | 1013.3 |
| 20260509022004 | 56 | 0 | 0.0 | 0.0 | 0.00 | 0.00 | 0.00 | 70 | 1013.2 |
| 20260509021904 | 56 | 129 | 0.0 | 0.0 | 0.00 | 0.00 | 0.00 | 69 | 1013.7 |
| 20260509021805 | 56 | 0 | 0.0 | 0.0 | 0.00 | 0.00 | 0.00 | 70 | 1013.2 |
| 20260509021605 | 56 | 0 | 0.0 | 0.0 | 0.00 | 0.00 | 0.00 | 67 | 1013.2 |
| 20260509021526 | 55 | 129 | 0.0 | 0.0 | 0.00 | 0.00 | 0.00 | 67 | 1013.7 |
| 20260509021404 | 56 | 0 | 0.0 | 0.0 | 0.00 | 0.00 | 0.00 | 69 | 1013.2 |
| 20260509021205 | 56 | 0 | 0.0 | 0.0 | 0.00 | 0.00 | 0.00 | 68 | 1013.2 |
| 20260509021004 | 56 | 0 | 0.0 | 0.0 | 0.00 | 0.00 | 0.00 | 68 | 1013.3 |
| 20260509020905 | 56 | 129 | 0.0 | 0.0 | 0.00 | 0.00 | 0.00 | 68 | 1013.8 |
| 20260509020804 | 56 | 0 | 0.0 | 0.0 | 0.00 | 0.00 | 0.00 | 68 | 1013.3 |
| 20260509020605 | 56 | 0 | 0.0 | 0.0 | 0.00 | 0.00 | 0.00 | 68 | 1013.3 |
| 20260509020404 | 56 | 0 | 0.0 | 0.0 | 0.00 | 0.00 | 0.00 | 71 | 1013.4 |
| 20260509020204 | 56 | 0 | 0.0 | 0.0 | 0.00 | 0.00 | 0.00 | 71 | 1013.4 |
| 20260509020045 | 55 | 129 | 0.0 | 0.0 | 0.00 | 0.00 | 0.00 | 72 | 1013.8 |
| 20260509020002 | 55 | 129 | 0.0 | 0.0 | 0.00 | 0.00 | 0.00 | 71 | 1013.7 |
| 20260509015804 | 56 | 0 | 0.0 | 0.0 | 0.00 | 0.00 | 0.00 | 67 | 1013.3 |
| 20260509015604 | 56 | 0 | 0.0 | 0.0 | 0.00 | 0.00 | 0.00 | 69 | 1013.3 |
| 20260509015404 | 56 | 129 | 0.0 | 0.0 | 0.00 | 0.00 | 0.00 | 70 | 1013.7 |
| 20260509015205 | 56 | 0 | 0.0 | 0.0 | 0.00 | 0.00 | 0.00 | 66 | 1013.2 |
| 20260509015004 | 56 | 0 | 0.0 | 0.0 | 0.00 | 0.00 | 0.00 | 66 | 1013.2 |
| 20260509014904 | 56 | 129 | 0.0 | 0.0 | 0.00 | 0.00 | 0.00 | 66 | 1013.6 |
| 20260509014604 | 56 | 0 | 0.0 | 0.0 | 0.00 | 0.00 | 0.00 | 67 | 1013.1 |
| 20260509014544 | 56 | 129 | 0.0 | 0.0 | 0.00 | 0.00 | 0.00 | 68 | 1013.6 |
| 20260509014508 | 56 | 129 | 0.0 | 0.0 | 0.00 | 0.00 | 0.00 | 68 | 1013.6 |
| 20260509014404 | 56 | 0 | 0.0 | 0.0 | 0.00 | 0.00 | 0.00 | 69 | 1013.1 |
| 20260509013805 | 56 | 0 | 0.0 | 0.0 | 0.00 | 0.00 | 0.00 | 68 | 1013.1 |
| 20260509013604 | 56 | 0 | 0.0 | 0.0 | 0.00 | 0.00 | 0.00 | 70 | 1013.1 |
| 20260509013404 | 56 | 0 | 0.0 | 0.0 | 0.00 | 0.00 | 0.00 | 69 | 1013.1 |
| 20260509013204 | 56 | 0 | 0.0 | 0.0 | 0.00 | 0.00 | 0.00 | 67 | 1013.2 |
| 20260509013104 | 56 | 129 | 0.0 | 0.0 | 0.00 | 0.00 | 0.00 | 67 | 1013.6 |
| 20260509013014 | 56 | 129 | 0.0 | 0.0 | 0.00 | 0.00 | 0.00 | 67 | 1013.6 |
| 20260509013004 | 56 | 0 | 0.0 | 0.0 | 0.00 | 0.00 | 0.00 | 67 | 1013.1 |
| 20260509012804 | 56 | 0 | 0.0 | 0.0 | 0.00 | 0.00 | 0.00 | 68 | 1013.1 |
| 20260509012604 | 56 | 0 | 0.0 | 0.0 | 0.00 | 0.00 | 0.00 | 69 | 1013.2 |
| 20260509012405 | 56 | 0 | 0.0 | 0.0 | 0.00 | 0.00 | 0.00 | 67 | 1013.2 |
| 20260509012204 | 56 | 0 | 0.0 | 4.0 | 0.00 | 0.00 | 0.00 | 66 | 1013.1 |
| 20260509012004 | 56 | 0 | 0.0 | 2.0 | 0.00 | 0.00 | 0.00 | 64 | 1013.3 |
| 20260509011604 | 56 | 0 | 0.0 | 0.0 | 0.00 | 0.00 | 0.00 | 64 | 1013.1 |
| 20260509011517 | 56 | 317 | 0.0 | 0.0 | 0.00 | 0.00 | 0.00 | 63 | 1013.6 |
| 20260509011404 | 56 | 0 | 0.0 | 0.0 | 0.00 | 0.00 | 0.00 | 61 | 1013.1 |
| 20260509011204 | 56 | 0 | 0.0 | 0.0 | 0.00 | 0.00 | 0.00 | 61 | 1013.1 |
| 20260509011004 | 56 | 0 | 0.0 | 0.0 | 0.00 | 0.00 | 0.00 | 59 | 1013.1 |
| 20260509010904 | 57 | 317 | 0.0 | 0.0 | 0.00 | 0.00 | 0.00 | 61 | 1013.5 |
| 20260509010804 | 57 | 0 | 0.0 | 0.0 | 0.00 | 0.00 | 0.00 | 61 | 1013.0 |
| 20260509010604 | 57 | 0 | 0.0 | 0.0 | 0.00 | 0.00 | 0.00 | 65 | 1013.0 |
| 20260509010404 | 57 | 317 | 0.0 | 0.0 | 0.00 | 0.00 | 0.00 | 65 | 1013.5 |
| 20260509010204 | 57 | 0 | 0.0 | 0.0 | 0.00 | 0.00 | 0.00 | 64 | 1013.0 |
| 20260509010053 | 56 | 317 | 0.0 | 0.0 | 0.00 | 0.00 | 0.00 | 61 | 1013.4 |
| 20260509010020 | 56 | 317 | 0.0 | 0.0 | 0.00 | 0.00 | 0.00 | 61 | 1013.4 |
| 20260509010004 | 57 | 0 | 0.0 | 0.0 | 0.00 | 0.00 | 0.00 | 61 | 1012.9 |
| 20260509005903 | 57 | 317 | 0.0 | 0.0 | 0.00 | 0.00 | 0.00 | 62 | 1013.4 |
| 20260509005804 | 57 | 0 | 0.0 | 0.0 | 0.00 | 0.00 | 0.00 | 62 | 1012.9 |
| 20260509005604 | 57 | 0 | 0.0 | 0.0 | 0.00 | 0.00 | 0.00 | 62 | 1012.9 |
| 20260509005204 | 57 | 0 | 0.0 | 0.0 | 0.00 | 0.00 | 0.00 | 61 | 1012.8 |
| 20260509005003 | 57 | 0 | 0.0 | 0.0 | 0.00 | 0.00 | 0.00 | 58 | 1012.8 |
| 20260509004905 | 57 | 317 | 0.0 | 0.0 | 0.00 | 0.00 | 0.00 | 60 | 1013.2 |
| 20260509004804 | 57 | 0 | 0.0 | 0.0 | 0.00 | 0.00 | 0.00 | 60 | 1012.8 |
| 20260509004604 | 57 | 0 | 0.0 | 0.0 | 0.00 | 0.00 | 0.00 | 58 | 1012.7 |
| 20260509004528 | 57 | 317 | 0.0 | 0.0 | 0.00 | 0.00 | 0.00 | 58 | 1013.2 |
| 20260509004404 | 57 | 317 | 0.0 | 0.0 | 0.00 | 0.00 | 0.00 | 58 | 1013.2 |
| 20260509004204 | 57 | 0 | 0.0 | 0.0 | 0.00 | 0.00 | 0.00 | 57 | 1012.7 |
| 20260509004004 | 57 | 0 | 0.0 | 0.0 | 0.00 | 0.00 | 0.00 | 57 | 1012.7 |
| 20260509003904 | 57 | 317 | 0.0 | 0.0 | 0.00 | 0.00 | 0.00 | 57 | 1013.1 |
| 20260509003804 | 57 | 0 | 0.0 | 0.0 | 0.00 | 0.00 | 0.00 | 57 | 1012.7 |
| 20260509003604 | 57 | 0 | 0.0 | 0.0 | 0.00 | 0.00 | 0.00 | 57 | 1012.6 |
| 20260509003204 | 57 | 0 | 0.0 | 0.0 | 0.00 | 0.00 | 0.00 | 58 | 1012.6 |
| 20260509003044 | 57 | 317 | 0.0 | 0.0 | 0.00 | 0.00 | 0.00 | 56 | 1013.1 |
| 20260509002604 | 58 | 0 | 0.0 | 0.0 | 0.00 | 0.00 | 0.00 | 57 | 1012.5 |
| 20260509002404 | 58 | 317 | 0.0 | 0.0 | 0.00 | 0.00 | 0.00 | 52 | 1013.0 |
| 20260509002204 | 58 | 0 | 0.0 | 0.0 | 0.00 | 0.00 | 0.00 | 53 | 1012.4 |
| 20260509002004 | 58 | 0 | 0.0 | 0.0 | 0.00 | 0.00 | 0.00 | 56 | 1012.4 |
| 20260509001903 | 58 | 317 | 0.0 | 0.0 | 0.00 | 0.00 | 0.00 | 56 | 1012.8 |
| 20260509001804 | 58 | 0 | 0.0 | 0.0 | 0.00 | 0.00 | 0.00 | 56 | 1012.3 |
| 20260509001604 | 59 | 0 | 0.0 | 0.0 | 0.00 | 0.00 | 0.00 | 55 | 1012.3 |
| 20260509001538 | 58 | 317 | 0.0 | 0.0 | 0.00 | 0.00 | 0.00 | 55 | 1012.7 |
| 20260509001501 | 58 | 317 | 0.0 | 0.0 | 0.00 | 0.00 | 0.00 | 52 | 1012.8 |
| 20260509001404 | 59 | 0 | 0.0 | 0.0 | 0.00 | 0.00 | 0.00 | 52 | 1012.3 |
| 20260509001204 | 59 | 0 | 0.0 | 0.0 | 0.00 | 0.00 | 0.00 | 52 | 1012.3 |
| 20260509001005 | 59 | 0 | 0.0 | 0.0 | 0.00 | 0.00 | 0.00 | 51 | 1012.3 |
| 20260509000804 | 59 | 0 | 0.0 | 0.0 | 0.00 | 0.00 | 0.00 | 53 | 1012.2 |
| 20260509000604 | 59 | 0 | 0.0 | 0.0 | 0.00 | 0.00 | 0.00 | 54 | 1012.1 |
| 20260509000405 | 60 | 0 | 0.0 | 0.0 | 0.00 | 0.00 | 0.00 | 51 | 1012.2 |
| 20260509000052 | 59 | 317 | 0.0 | 0.0 | 0.00 | 0.00 | 0.00 | 51 | 1012.6 |
| 20260509000010 | 59 | 330 | 0.0 | 0.0 | 0.00 | 0.00 | 0.00 | 51 | 1012.6 |
| 20260509000004 | 60 | 0 | 0.0 | 0.0 | 0.00 | 0.00 | 0.00 | 51 | 1012.1 |
| 20260508235903 | 60 | 331 | 0.0 | 0.0 | 0.00 | 0.00 | 0.00 | 52 | 1012.5 |
| 20260508235804 | 60 | 0 | 0.0 | 0.0 | 0.00 | 0.00 | 0.00 | 52 | 1012.1 |
| 20260508235605 | 60 | 0 | 0.0 | 0.0 | 0.00 | 0.00 | 0.00 | 53 | 1012.1 |
| 20260508235204 | 60 | 0 | 0.0 | 0.0 | 0.00 | 0.00 | 0.00 | 49 | 1012.1 |
| 20260508235004 | 60 | 0 | 0.0 | 0.0 | 0.00 | 0.00 | 0.00 | 48 | 1012.1 |
| 20260508234903 | 60 | 331 | 0.0 | 0.0 | 0.00 | 0.00 | 0.00 | 48 | 1012.5 |
| 20260508234804 | 60 | 0 | 0.0 | 0.0 | 0.00 | 0.00 | 0.00 | 48 | 1012.0 |
| 20260508234548 | 60 | 330 | 0.0 | 0.0 | 0.00 | 0.00 | 0.00 | 50 | 1012.5 |
| 20260508234511 | 60 | 331 | 0.0 | 0.0 | 0.00 | 0.00 | 0.00 | 51 | 1012.5 |
| 20260508234403 | 61 | 330 | 0.0 | 0.0 | 0.00 | 0.00 | 0.00 | 50 | 1012.5 |
| 20260508234203 | 61 | 0 | 0.0 | 0.0 | 0.00 | 0.00 | 0.00 | 51 | 1012.0 |
| 20260508234004 | 61 | 0 | 0.0 | 0.0 | 0.00 | 0.00 | 0.00 | 52 | 1012.0 |
| 20260508233903 | 61 | 331 | 0.0 | 0.0 | 0.00 | 0.00 | 0.00 | 49 | 1012.5 |
| 20260508233802 | 61 | 0 | 0.0 | 0.0 | 0.00 | 0.00 | 0.00 | 49 | 1012.0 |
| 20260508233603 | 61 | 0 | 0.0 | 0.0 | 0.00 | 0.00 | 0.00 | 47 | 1012.1 |
| 20260508233403 | 61 | 0 | 0.0 | 0.0 | 0.00 | 0.00 | 0.00 | 49 | 1012.0 |
| 20260508233053 | 61 | 330 | 0.0 | 0.0 | 0.00 | 0.00 | 0.00 | 48 | 1012.5 |
| 20260508233017 | 61 | 331 | 0.0 | 0.0 | 0.00 | 0.00 | 0.00 | 51 | 1012.4 |
| 20260508233003 | 62 | 0 | 0.0 | 0.0 | 0.00 | 0.00 | 0.00 | 53 | 1012.0 |
| 20260508232904 | 62 | 331 | 0.0 | 0.0 | 0.00 | 0.00 | 0.00 | 54 | 1012.4 |
| 20260508232803 | 62 | 0 | 0.0 | 0.0 | 0.00 | 0.00 | 0.00 | 54 | 1012.0 |
| 20260508232603 | 62 | 0 | 0.0 | 0.0 | 0.00 | 0.00 | 0.00 | 49 | 1011.9 |
| 20260508232403 | 62 | 0 | 0.0 | 0.0 | 0.00 | 0.00 | 0.00 | 49 | 1011.9 |
| 20260508232202 | 62 | 0 | 0.0 | 0.0 | 0.00 | 0.00 | 0.00 | 48 | 1011.9 |
| 20260508232003 | 62 | 0 | 0.0 | 0.0 | 0.00 | 0.00 | 0.00 | 47 | 1011.9 |
| 20260508231902 | 62 | 331 | 0.0 | 0.0 | 0.00 | 0.00 | 0.00 | 46 | 1012.3 |
| 20260508231804 | 62 | 0 | 0.0 | 0.0 | 0.00 | 0.00 | 0.00 | 48 | 1011.9 |
| 20260508231602 | 62 | 0 | 0.0 | 0.0 | 0.00 | 0.00 | 0.00 | 53 | 1011.9 |
| 20260508231554 | 62 | 330 | 0.0 | 0.0 | 0.00 | 0.00 | 0.00 | 53 | 1012.3 |
| 20260508231517 | 62 | 331 | 0.0 | 0.0 | 0.00 | 0.00 | 0.00 | 53 | 1012.4 |
| 20260508231403 | 62 | 0 | 0.0 | 0.0 | 0.00 | 0.00 | 0.00 | 49 | 1011.9 |
| 20260508231203 | 63 | 0 | 0.0 | 0.0 | 0.00 | 0.00 | 0.00 | 49 | 1011.9 |
| 20260508231003 | 63 | 0 | 0.0 | 0.0 | 0.00 | 0.00 | 0.00 | 47 | 1011.9 |
| 20260508230902 | 63 | 296 | 0.0 | 0.0 | 0.00 | 0.00 | 0.00 | 43 | 1012.4 |
| 20260508230803 | 63 | 0 | 0.0 | 0.0 | 0.00 | 0.00 | 0.00 | 42 | 1011.9 |
| 20260508230603 | 63 | 0 | 0.0 | 0.0 | 0.00 | 0.00 | 0.00 | 45 | 1011.9 |
| 20260508230402 | 63 | 296 | 0.0 | 0.0 | 0.00 | 0.00 | 0.00 | 43 | 1012.3 |
| 20260508230204 | 63 | 0 | 0.0 | 0.0 | 0.00 | 0.00 | 0.00 | 45 | 1011.8 |
| 20260508230032 | 63 | 296 | 0.0 | 0.0 | 0.00 | 0.00 | 0.00 | 49 | 1012.3 |
| 20260508230003 | 63 | 0 | 0.0 | 0.0 | 0.00 | 0.00 | 0.00 | 44 | 1011.8 |
| 20260508225903 | 63 | 295 | 0.0 | 0.0 | 0.00 | 0.00 | 0.00 | 43 | 1012.3 |
| 20260508225804 | 63 | 0 | 0.0 | 0.0 | 0.00 | 0.00 | 0.00 | 44 | 1011.8 |
| 20260508225602 | 63 | 0 | 0.0 | 0.0 | 0.00 | 0.00 | 0.00 | 46 | 1011.7 |
| 20260508225404 | 63 | 0 | 0.0 | 0.0 | 0.00 | 0.00 | 0.00 | 46 | 1011.7 |
| 20260508225204 | 63 | 0 | 0.0 | 0.0 | 0.00 | 0.00 | 0.00 | 44 | 1011.7 |
| 20260508225003 | 63 | 0 | 0.0 | 0.0 | 0.00 | 0.00 | 0.00 | 44 | 1011.7 |
| 20260508224903 | 64 | 296 | 0.0 | 0.0 | 0.00 | 0.00 | 0.00 | 42 | 1012.2 |
| 20260508224803 | 64 | 0 | 0.0 | 0.0 | 0.00 | 0.00 | 0.00 | 42 | 1011.7 |
| 20260508224604 | 64 | 0 | 0.0 | 0.0 | 0.00 | 0.00 | 0.00 | 40 | 1011.6 |
| 20260508224531 | 63 | 296 | 0.0 | 0.0 | 0.00 | 0.00 | 0.00 | 43 | 1012.1 |
| 20260508224403 | 64 | 0 | 0.0 | 0.0 | 0.00 | 0.00 | 0.00 | 44 | 1011.7 |
| 20260508224203 | 64 | 0 | 0.0 | 2.0 | 0.00 | 0.00 | 0.00 | 39 | 1011.7 |
| 20260508224003 | 64 | 0 | 0.0 | 2.0 | 0.00 | 0.00 | 0.00 | 40 | 1011.7 |
| 20260508223903 | 64 | 321 | 0.0 | 1.0 | 0.00 | 0.00 | 0.00 | 39 | 1012.1 |
| 20260508223803 | 64 | 0 | 0.0 | 0.0 | 0.00 | 0.00 | 0.00 | 39 | 1011.7 |
| 20260508223603 | 64 | 0 | 0.0 | 2.0 | 0.00 | 0.00 | 0.00 | 39 | 1011.6 |
| 20260508223403 | 64 | 333 | 0.0 | 2.0 | 0.00 | 0.00 | 0.00 | 39 | 1012.1 |
| 20260508223204 | 64 | 0 | 0.0 | 0.0 | 0.00 | 0.00 | 0.00 | 40 | 1011.6 |
| 20260508223035 | 63 | 330 | 1.0 | 0.0 | 0.00 | 0.00 | 0.00 | 40 | 1012.1 |
| 20260508223004 | 64 | 0 | 1.0 | 0.0 | 0.00 | 0.00 | 0.00 | 41 | 1011.7 |
| 20260508222902 | 64 | 330 | 0.0 | 0.0 | 0.00 | 0.00 | 0.00 | 40 | 1012.1 |
| 20260508222804 | 64 | 0 | 1.0 | 0.0 | 0.00 | 0.00 | 0.00 | 40 | 1011.7 |
| 20260508222605 | 64 | 315 | 1.0 | 4.0 | 0.00 | 0.00 | 0.00 | 38 | 1011.7 |
| 20260508222403 | 64 | 308 | 1.0 | 5.0 | 0.00 | 0.00 | 0.00 | 38 | 1011.7 |
| 20260508222204 | 64 | 0 | 0.0 | 6.0 | 0.00 | 0.00 | 0.00 | 38 | 1011.6 |
| 20260508222003 | 64 | 0 | 0.0 | 3.0 | 0.00 | 0.00 | 0.00 | 39 | 1011.7 |
| 20260508221903 | 64 | 304 | 0.0 | 3.0 | 0.00 | 0.00 | 0.00 | 40 | 1012.2 |
| 20260508221803 | 64 | 0 | 0.0 | 3.0 | 0.00 | 0.00 | 0.00 | 39 | 1011.8 |
| 20260508221603 | 64 | 0 | 0.0 | 2.0 | 0.00 | 0.00 | 0.00 | 40 | 1011.7 |
| 20260508221544 | 64 | 257 | 0.0 | 0.0 | 0.00 | 0.00 | 0.00 | 40 | 1012.2 |
| 20260508221510 | 64 | 175 | 0.0 | 0.0 | 0.00 | 0.00 | 0.00 | 42 | 1012.2 |
| 20260508221204 | 64 | 0 | 0.0 | 5.0 | 0.00 | 0.00 | 0.00 | 38 | 1011.7 |
| 20260508221003 | 64 | 0 | 0.0 | 0.0 | 0.00 | 0.00 | 0.00 | 43 | 1011.7 |
| 20260508220902 | 64 | 288 | 0.0 | 2.0 | 0.00 | 0.00 | 0.00 | 41 | 1012.1 |
| 20260508220803 | 64 | 0 | 0.0 | 0.0 | 0.00 | 0.00 | 0.00 | 41 | 1011.7 |
| 20260508220046 | 64 | 278 | 0.0 | 0.0 | 0.00 | 0.00 | 0.00 | 39 | 1012.1 |
| 20260508220015 | 64 | 196 | 0.0 | 0.0 | 0.00 | 0.00 | 0.00 | 38 | 1012.1 |
| 20260508220003 | 64 | 0 | 0.0 | 4.0 | 0.00 | 0.00 | 0.00 | 38 | 1011.6 |
| 20260508215903 | 65 | 216 | 0.0 | 3.0 | 0.00 | 0.00 | 0.00 | 38 | 1012.1 |
| 20260508215803 | 65 | 0 | 0.0 | 2.0 | 0.00 | 0.00 | 0.00 | 38 | 1011.6 |
| 20260508215603 | 65 | 0 | 1.0 | 0.0 | 0.00 | 0.00 | 0.00 | 40 | 1011.7 |
| 20260508215403 | 65 | 262 | 1.0 | 8.0 | 0.00 | 0.00 | 0.00 | 40 | 1012.1 |
| 20260508215204 | 65 | 0 | 1.0 | 0.0 | 0.00 | 0.00 | 0.00 | 43 | 1011.7 |
| 20260508215003 | 65 | 0 | 1.0 | 0.0 | 0.00 | 0.00 | 0.00 | 41 | 1011.7 |
| 20260508214904 | 65 | 286 | 0.0 | 8.0 | 0.00 | 0.00 | 0.00 | 38 | 1012.2 |
| 20260508214804 | 65 | 299 | 1.0 | 8.0 | 0.00 | 0.00 | 0.00 | 37 | 1011.7 |
| 20260508214557 | 65 | 289 | 1.0 | 0.0 | 0.00 | 0.00 | 0.00 | 37 | 1012.1 |
| 20260508214521 | 65 | 272 | 1.0 | 0.0 | 0.00 | 0.00 | 0.00 | 39 | 1012.1 |
| 20260508214403 | 65 | 276 | 1.0 | 6.0 | 0.00 | 0.00 | 0.00 | 38 | 1011.7 |
| 20260508214203 | 65 | 276 | 1.0 | 8.0 | 0.00 | 0.00 | 0.00 | 35 | 1011.7 |
| 20260508214003 | 66 | 278 | 1.0 | 8.0 | 0.00 | 0.00 | 0.00 | 35 | 1011.7 |
| 20260508213903 | 66 | 276 | 1.0 | 8.0 | 0.00 | 0.00 | 0.00 | 38 | 1012.1 |
| 20260508213803 | 66 | 309 | 1.0 | 8.0 | 0.00 | 0.00 | 0.00 | 37 | 1011.7 |
| 20260508213603 | 66 | 338 | 1.0 | 8.0 | 0.00 | 0.00 | 0.00 | 35 | 1011.6 |
| 20260508213204 | 66 | 274 | 1.0 | 7.0 | 0.00 | 0.00 | 0.00 | 37 | 1011.6 |
| 20260508213029 | 66 | 276 | 1.0 | 0.0 | 0.00 | 0.00 | 0.00 | 36 | 1012.1 |
| 20260508213004 | 67 | 278 | 1.0 | 7.0 | 0.00 | 0.00 | 0.00 | 34 | 1011.6 |
| 20260508212903 | 67 | 309 | 4.0 | 14.0 | 0.00 | 0.00 | 0.00 | 33 | 1012.1 |
| 20260508212805 | 67 | 275 | 1.0 | 14.0 | 0.00 | 0.00 | 0.00 | 32 | 1011.6 |
| 20260508212403 | 67 | 0 | 0.0 | 7.0 | 0.00 | 0.00 | 0.00 | 40 | 1011.6 |
| 20260508212203 | 66 | 0 | 0.0 | 0.0 | 0.00 | 0.00 | 0.00 | 40 | 1011.7 |
| 20260508212003 | 66 | 0 | 0.0 | 0.0 | 0.00 | 0.00 | 0.00 | 37 | 1011.6 |
| 20260508211902 | 66 | 130 | 0.0 | 7.0 | 0.00 | 0.00 | 0.00 | 38 | 1012.1 |
| 20260508211803 | 65 | 0 | 0.0 | 7.0 | 0.00 | 0.00 | 0.00 | 37 | 1011.6 |
| 20260508211603 | 65 | 283 | 1.0 | 7.0 | 0.00 | 0.00 | 0.00 | 39 | 1011.6 |
| 20260508211540 | 65 | 290 | 1.0 | 0.0 | 0.00 | 0.00 | 0.00 | 39 | 1012.1 |
| 20260508211502 | 65 | 268 | 1.0 | 0.0 | 0.00 | 0.00 | 0.00 | 39 | 1012.1 |
| 20260508211403 | 65 | 290 | 1.0 | 4.0 | 0.00 | 0.00 | 0.00 | 39 | 1011.6 |
| 20260508211203 | 65 | 0 | 0.0 | 4.0 | 0.00 | 0.00 | 0.00 | 37 | 1011.7 |
| 20260508211003 | 65 | 0 | 0.0 | 0.0 | 0.00 | 0.00 | 0.00 | 36 | 1011.7 |
| 20260508210903 | 65 | 19 | 1.0 | 5.0 | 0.00 | 0.00 | 0.00 | 36 | 1012.1 |
| 20260508210404 | 65 | 0 | 0.0 | 3.0 | 0.00 | 0.00 | 0.00 | 36 | 1011.7 |
| 20260508210402 | 65 | 315 | 0.0 | 3.0 | 0.00 | 0.00 | 0.00 | 38 | 1012.2 |
| 20260508210203 | 65 | 0 | 0.0 | 1.0 | 0.00 | 0.00 | 0.00 | 37 | 1011.8 |
| 20260508210049 | 65 | 286 | 0.0 | 0.0 | 0.00 | 0.00 | 0.00 | 37 | 1012.3 |
| 20260508210015 | 65 | 286 | 0.0 | 0.0 | 0.00 | 0.00 | 0.00 | 37 | 1012.2 |
| 20260508210003 | 65 | 0 | 0.0 | 1.0 | 0.00 | 0.00 | 0.00 | 37 | 1011.7 |
| 20260508205903 | 65 | 302 | 1.0 | 7.0 | 0.00 | 0.00 | 0.00 | 36 | 1012.2 |
| 20260508205803 | 65 | 0 | 0.0 | 7.0 | 0.00 | 0.00 | 0.00 | 36 | 1011.7 |
| 20260508205604 | 66 | 294 | 1.0 | 4.0 | 0.00 | 0.00 | 0.00 | 38 | 1011.6 |
| 20260508205403 | 66 | 331 | 0.0 | 2.0 | 0.00 | 0.00 | 0.00 | 38 | 1012.2 |
| 20260508205203 | 66 | 248 | 1.0 | 2.0 | 0.00 | 0.00 | 0.00 | 36 | 1011.7 |
| 20260508205004 | 66 | 255 | 1.0 | 3.0 | 0.00 | 0.00 | 0.00 | 36 | 1011.7 |
| 20260508204903 | 66 | 230 | 1.0 | 13.0 | 0.00 | 0.00 | 0.00 | 36 | 1012.1 |
| 20260508204603 | 67 | 0 | 0.0 | 13.0 | 0.00 | 0.00 | 0.00 | 35 | 1011.7 |
| 20260508204555 | 66 | 268 | 0.0 | 0.0 | 0.00 | 0.00 | 0.00 | 35 | 1012.1 |
| 20260508204518 | 66 | 160 | 0.0 | 0.0 | 0.00 | 0.00 | 0.00 | 35 | 1012.2 |
| 20260508204404 | 67 | 0 | 0.0 | 1.0 | 0.00 | 0.00 | 0.00 | 37 | 1011.7 |
| 20260508204203 | 67 | 0 | 0.0 | 4.0 | 0.00 | 0.00 | 0.00 | 36 | 1011.7 |
| 20260508204003 | 68 | 171 | 1.0 | 4.0 | 0.00 | 0.00 | 0.00 | 37 | 1011.6 |
| 20260508203902 | 68 | 154 | 0.0 | 6.0 | 0.00 | 0.00 | 0.00 | 35 | 1012.1 |
| 20260508203803 | 68 | 172 | 1.0 | 3.0 | 0.00 | 0.00 | 0.00 | 36 | 1011.6 |
| 20260508203602 | 68 | 239 | 2.0 | 6.0 | 0.00 | 0.00 | 0.00 | 34 | 1011.7 |
| 20260508203404 | 68 | 228 | 2.0 | 3.0 | 0.00 | 0.00 | 0.00 | 35 | 1011.7 |
| 20260508203203 | 68 | 292 | 2.0 | 6.0 | 0.00 | 0.00 | 0.00 | 34 | 1011.7 |
| 20260508203100 | 67 | 215 | 2.0 | 0.0 | 0.00 | 0.00 | 0.00 | 35 | 1012.2 |
| 20260508203025 | 67 | 296 | 2.0 | 0.0 | 0.00 | 0.00 | 0.00 | 35 | 1012.1 |
| 20260508203003 | 68 | 305 | 2.0 | 10.0 | 0.00 | 0.00 | 0.00 | 35 | 1011.7 |
| 20260508202904 | 68 | 286 | 2.0 | 12.0 | 0.00 | 0.00 | 0.00 | 34 | 1012.2 |
| 20260508202803 | 68 | 305 | 1.0 | 11.0 | 0.00 | 0.00 | 0.00 | 34 | 1011.6 |
| 20260508202604 | 68 | 0 | 0.0 | 9.0 | 0.00 | 0.00 | 0.00 | 35 | 1011.5 |
| 20260508202404 | 68 | 0 | 0.0 | 6.0 | 0.00 | 0.00 | 0.00 | 36 | 1011.6 |
| 20260508202204 | 68 | 0 | 0.0 | 6.0 | 0.00 | 0.00 | 0.00 | 34 | 1011.8 |
| 20260508201903 | 68 | 209 | 0.0 | 0.0 | 0.00 | 0.00 | 0.00 | 35 | 1012.3 |
| 20260508201803 | 68 | 0 | 1.0 | 0.0 | 0.00 | 0.00 | 0.00 | 35 | 1011.8 |
| 20260508201603 | 69 | 0 | 1.0 | 0.0 | 0.00 | 0.00 | 0.00 | 34 | 1011.8 |
| 20260508201534 | 68 | 180 | 1.0 | 0.0 | 0.00 | 0.00 | 0.00 | 34 | 1012.2 |
| 20260508201403 | 69 | 254 | 1.0 | 9.0 | 0.00 | 0.00 | 0.00 | 32 | 1011.8 |
| 20260508201204 | 69 | 205 | 1.0 | 3.0 | 0.00 | 0.00 | 0.00 | 34 | 1011.9 |
| 20260508201003 | 69 | 300 | 1.0 | 5.0 | 0.00 | 0.00 | 0.00 | 33 | 1011.7 |
| 20260508200804 | 69 | 267 | 2.0 | 4.0 | 0.00 | 0.00 | 0.00 | 37 | 1011.8 |
| 20260508200603 | 69 | 280 | 3.0 | 6.0 | 0.00 | 0.00 | 0.00 | 35 | 1011.7 |
| 20260508200403 | 69 | 308 | 3.0 | 11.0 | 0.00 | 0.00 | 0.00 | 39 | 1011.8 |
| 20260508200204 | 68 | 311 | 4.0 | 11.0 | 0.00 | 0.00 | 0.00 | 32 | 1011.8 |
| 20260508200050 | 68 | 225 | 4.0 | 0.0 | 0.00 | 0.00 | 0.00 | 31 | 1012.4 |
| 20260508200003 | 68 | 282 | 4.0 | 12.0 | 0.00 | 0.00 | 0.00 | 31 | 1011.9 |
| 20260508195903 | 69 | 271 | 5.0 | 15.0 | 0.00 | 0.00 | 0.00 | 32 | 1012.4 |
| 20260508195803 | 69 | 287 | 3.0 | 11.0 | 0.00 | 0.00 | 0.00 | 34 | 1011.9 |
| 20260508195603 | 68 | 302 | 3.0 | 15.0 | 0.00 | 0.00 | 0.00 | 33 | 1012.0 |
| 20260508195404 | 68 | 228 | 3.0 | 14.0 | 0.00 | 0.00 | 0.00 | 38 | 1012.5 |
| 20260508195203 | 68 | 304 | 2.0 | 14.0 | 0.00 | 0.00 | 0.00 | 37 | 1012.0 |
| 20260508195003 | 68 | 297 | 2.0 | 10.0 | 0.00 | 0.00 | 0.00 | 38 | 1012.1 |
| 20260508194803 | 68 | 297 | 1.0 | 8.0 | 0.00 | 0.00 | 0.00 | 34 | 1012.0 |
| 20260508194603 | 68 | 304 | 1.0 | 7.0 | 0.00 | 0.00 | 0.00 | 33 | 1012.1 |
| 20260508194544 | 68 | 310 | 1.0 | 0.0 | 0.00 | 0.00 | 0.00 | 33 | 1012.5 |
| 20260508194509 | 68 | 290 | 1.0 | 0.0 | 0.00 | 0.00 | 0.00 | 37 | 1012.6 |
| 20260508194203 | 69 | 285 | 1.0 | 13.0 | 0.00 | 0.00 | 0.00 | 35 | 1012.2 |
| 20260508194004 | 69 | 0 | 1.0 | 0.0 | 0.00 | 0.00 | 0.00 | 36 | 1012.2 |
| 20260508193803 | 70 | 289 | 2.0 | 3.0 | 0.00 | 0.00 | 0.00 | 33 | 1012.2 |
| 20260508193603 | 70 | 277 | 2.0 | 10.0 | 0.00 | 0.00 | 0.00 | 34 | 1012.2 |
| 20260508193404 | 69 | 264 | 2.0 | 8.0 | 0.00 | 0.00 | 0.00 | 33 | 1012.2 |
| 20260508193203 | 69 | 217 | 1.0 | 3.0 | 0.00 | 0.00 | 0.00 | 37 | 1012.4 |
| 20260508193101 | 68 | 229 | 1.0 | 0.0 | 0.00 | 0.00 | 0.00 | 38 | 1012.8 |
| 20260508193020 | 68 | 229 | 1.0 | 0.0 | 0.00 | 0.00 | 0.00 | 38 | 1012.9 |
| 20260508193003 | 69 | 273 | 1.0 | 18.0 | 0.00 | 0.00 | 0.00 | 38 | 1012.5 |
| 20260508192903 | 68 | 242 | 4.0 | 18.0 | 0.00 | 0.00 | 0.00 | 36 | 1012.9 |
| 20260508192605 | 68 | 216 | 1.0 | 5.0 | 0.00 | 0.00 | 0.00 | 37 | 1012.5 |
| 20260508192403 | 67 | 268 | 1.0 | 3.0 | 0.00 | 0.00 | 0.00 | 38 | 1012.5 |
| 20260508192203 | 67 | 266 | 1.0 | 4.0 | 0.00 | 0.00 | 0.00 | 35 | 1012.6 |
| 20260508192005 | 67 | 210 | 1.0 | 3.0 | 0.00 | 0.00 | 0.00 | 36 | 1012.7 |
| 20260508191903 | 67 | 201 | 0.0 | 12.0 | 0.00 | 0.00 | 0.00 | 38 | 1013.3 |
| 20260508191803 | 67 | 301 | 1.0 | 11.0 | 0.00 | 0.00 | 0.00 | 37 | 1012.8 |
| 20260508191603 | 68 | 301 | 1.0 | 11.0 | 0.00 | 0.00 | 0.00 | 34 | 1012.8 |
| 20260508191525 | 67 | 338 | 1.0 | 0.0 | 0.00 | 0.00 | 0.00 | 37 | 1013.3 |
| 20260508191403 | 68 | 292 | 1.0 | 3.0 | 0.00 | 0.00 | 0.00 | 38 | 1013.3 |
| 20260508191203 | 68 | 170 | 1.0 | 4.0 | 0.00 | 0.00 | 0.00 | 41 | 1012.8 |
| 20260508191003 | 67 | 258 | 1.0 | 10.0 | 0.00 | 0.00 | 0.00 | 39 | 1012.8 |
| 20260508190604 | 66 | 0 | 0.0 | 4.0 | 0.00 | 0.00 | 0.00 | 39 | 1012.9 |
| 20260508190404 | 66 | 0 | 0.0 | 3.0 | 0.00 | 0.00 | 0.00 | 36 | 1012.9 |
| 20260508190203 | 66 | 0 | 0.0 | 4.0 | 0.00 | 0.00 | 0.00 | 40 | 1013.0 |
| 20260508190042 | 66 | 304 | 0.0 | 0.0 | 0.00 | 0.00 | 0.00 | 37 | 1013.4 |
| 20260508190003 | 66 | 0 | 0.0 | 4.0 | 0.00 | 0.00 | 0.00 | 41 | 1012.9 |
| 20260508185903 | 66 | 310 | 0.0 | 3.0 | 0.00 | 0.00 | 0.00 | 40 | 1013.4 |
| 20260508185603 | 66 | 300 | 2.0 | 3.0 | 0.00 | 0.00 | 0.00 | 37 | 1012.9 |
| 20260508185405 | 66 | 144 | 2.0 | 1.0 | 0.00 | 0.00 | 0.00 | 38 | 1013.0 |
| 20260508185403 | 66 | 195 | 0.0 | 3.0 | 0.00 | 0.00 | 0.00 | 38 | 1013.5 |
| 20260508185203 | 66 | 329 | 2.0 | 3.0 | 0.00 | 0.00 | 0.00 | 40 | 1012.9 |
| 20260508185003 | 66 | 292 | 2.0 | 14.0 | 0.00 | 0.00 | 0.00 | 40 | 1012.9 |
| 20260508184903 | 65 | 250 | 6.0 | 14.0 | 0.00 | 0.00 | 0.00 | 34 | 1013.4 |
| 20260508184804 | 65 | 302 | 1.0 | 14.0 | 0.00 | 0.00 | 0.00 | 36 | 1012.9 |
| 20260508184604 | 65 | 312 | 1.0 | 8.0 | 0.00 | 0.00 | 0.00 | 38 | 1012.9 |
| 20260508184559 | 65 | 327 | 1.0 | 0.0 | 0.00 | 0.00 | 0.00 | 38 | 1013.5 |
| 20260508184502 | 65 | 261 | 1.0 | 0.0 | 0.00 | 0.00 | 0.00 | 40 | 1013.5 |
| 20260508184404 | 65 | 299 | 1.0 | 8.0 | 0.00 | 0.00 | 0.00 | 41 | 1013.0 |
| 20260508184203 | 64 | 301 | 2.0 | 8.0 | 0.00 | 0.00 | 0.00 | 39 | 1013.0 |
| 20260508184003 | 64 | 215 | 3.0 | 4.0 | 0.00 | 0.00 | 0.00 | 39 | 1013.2 |
| 20260508183903 | 65 | 167 | 0.0 | 9.0 | 0.00 | 0.00 | 0.00 | 37 | 1013.7 |
| 20260508183805 | 65 | 288 | 3.0 | 4.0 | 0.00 | 0.00 | 0.00 | 38 | 1013.2 |
| 20260508183603 | 65 | 301 | 3.0 | 12.0 | 0.00 | 0.00 | 0.00 | 38 | 1013.2 |
| 20260508183403 | 66 | 303 | 3.0 | 15.0 | 0.00 | 0.00 | 0.00 | 34 | 1013.2 |
| 20260508183203 | 67 | 304 | 2.0 | 10.0 | 0.00 | 0.00 | 0.00 | 36 | 1013.2 |
| 20260508183105 | 67 | 333 | 1.0 | 0.0 | 0.00 | 0.00 | 0.00 | 37 | 1013.8 |
| 20260508183011 | 67 | 300 | 1.0 | 0.0 | 0.00 | 0.00 | 0.00 | 39 | 1013.8 |
| 20260508183004 | 67 | 275 | 1.0 | 11.0 | 0.00 | 0.00 | 0.00 | 39 | 1013.3 |
| 20260508182903 | 67 | 229 | 2.0 | 12.0 | 0.00 | 0.00 | 0.00 | 39 | 1013.8 |
| 20260508182803 | 67 | 298 | 1.0 | 9.0 | 0.00 | 0.00 | 0.00 | 41 | 1013.3 |
| 20260508182603 | 67 | 282 | 2.0 | 6.0 | 0.00 | 0.00 | 0.00 | 38 | 1013.3 |
| 20260508182404 | 67 | 300 | 2.0 | 8.0 | 0.00 | 0.00 | 0.00 | 36 | 1013.3 |
| 20260508182204 | 67 | 324 | 2.0 | 9.0 | 0.00 | 0.00 | 0.00 | 42 | 1013.3 |
| 20260508181803 | 68 | 297 | 2.0 | 15.0 | 0.00 | 0.00 | 0.00 | 34 | 1013.3 |
| 20260508181604 | 68 | 268 | 2.0 | 7.0 | 0.00 | 0.00 | 0.00 | 36 | 1013.4 |
| 20260508181524 | 67 | 267 | 2.0 | 0.0 | 0.00 | 0.00 | 0.00 | 36 | 1013.8 |
| 20260508181403 | 68 | 199 | 3.0 | 5.0 | 0.00 | 0.00 | 0.00 | 43 | 1013.3 |
| 20260508181203 | 68 | 333 | 3.0 | 11.0 | 0.00 | 0.00 | 0.00 | 39 | 1013.3 |
| 20260508181004 | 67 | 326 | 3.0 | 14.0 | 0.00 | 0.00 | 0.00 | 39 | 1013.3 |
| 20260508180902 | 67 | 315 | 2.0 | 14.0 | 0.00 | 0.00 | 0.00 | 41 | 1013.8 |
| 20260508180804 | 67 | 284 | 3.0 | 14.0 | 0.00 | 0.00 | 0.00 | 41 | 1013.3 |
| 20260508180603 | 67 | 301 | 2.0 | 10.0 | 0.00 | 0.00 | 0.00 | 38 | 1013.3 |
| 20260508180403 | 67 | 289 | 2.0 | 10.0 | 0.00 | 0.00 | 0.00 | 38 | 1013.9 |
| 20260508180027 | 66 | 317 | 2.0 | 0.0 | 0.00 | 0.00 | 0.00 | 39 | 1013.9 |
| 20260508180003 | 67 | 304 | 2.0 | 4.0 | 0.00 | 0.00 | 0.00 | 39 | 1013.4 |
| 20260508175902 | 67 | 301 | 2.0 | 13.0 | 0.00 | 0.00 | 0.00 | 40 | 1014.0 |
| 20260508175803 | 67 | 290 | 2.0 | 12.0 | 0.00 | 0.00 | 0.00 | 41 | 1013.5 |
| 20260508175603 | 66 | 284 | 2.0 | 13.0 | 0.00 | 0.00 | 0.00 | 42 | 1013.5 |
| 20260508175203 | 65 | 299 | 1.0 | 9.0 | 0.00 | 0.00 | 0.00 | 41 | 1013.5 |
| 20260508175003 | 65 | 314 | 2.0 | 9.0 | 0.00 | 0.00 | 0.00 | 42 | 1013.6 |
| 20260508174903 | 65 | 72 | 0.0 | 12.0 | 0.00 | 0.00 | 0.00 | 41 | 1014.2 |
| 20260508174803 | 64 | 310 | 3.0 | 4.0 | 0.00 | 0.00 | 0.00 | 40 | 1013.7 |
| 20260508174603 | 64 | 298 | 4.0 | 12.0 | 0.00 | 0.00 | 0.00 | 39 | 1013.7 |
| 20260508174553 | 64 | 323 | 4.0 | 0.0 | 0.00 | 0.00 | 0.00 | 38 | 1014.2 |
| 20260508174403 | 64 | 307 | 3.0 | 10.0 | 0.00 | 0.00 | 0.00 | 40 | 1013.7 |
| 20260508174204 | 64 | 281 | 3.0 | 14.0 | 0.00 | 0.00 | 0.00 | 38 | 1013.7 |
| 20260508174003 | 64 | 282 | 3.0 | 17.0 | 0.00 | 0.00 | 0.00 | 37 | 1013.8 |
| 20260508173903 | 65 | 294 | 5.0 | 17.0 | 0.00 | 0.00 | 0.00 | 36 | 1014.4 |
| 20260508173803 | 65 | 265 | 2.0 | 17.0 | 0.00 | 0.00 | 0.00 | 39 | 1013.9 |
| 20260508173604 | 65 | 213 | 2.0 | 8.0 | 0.00 | 0.00 | 0.00 | 40 | 1013.8 |
| 20260508173403 | 64 | 242 | 3.0 | 6.0 | 0.00 | 0.00 | 0.00 | 42 | 1013.8 |
| 20260508173203 | 64 | 276 | 4.0 | 14.0 | 0.00 | 0.00 | 0.00 | 38 | 1013.7 |
| 20260508173032 | 64 | 223 | 5.0 | 0.0 | 0.00 | 0.00 | 0.00 | 38 | 1014.3 |
| 20260508173004 | 64 | 302 | 5.0 | 14.0 | 0.00 | 0.00 | 0.00 | 38 | 1013.8 |
| 20260508172902 | 64 | 311 | 3.0 | 12.0 | 0.00 | 0.00 | 0.00 | 40 | 1014.3 |
| 20260508172804 | 64 | 276 | 4.0 | 10.0 | 0.00 | 0.00 | 0.00 | 41 | 1013.7 |
| 20260508172203 | 64 | 294 | 2.0 | 15.0 | 0.00 | 0.00 | 0.00 | 36 | 1013.8 |
| 20260508172004 | 65 | 320 | 1.0 | 11.0 | 0.00 | 0.00 | 0.00 | 37 | 1013.8 |
| 20260508171904 | 65 | 323 | 1.0 | 10.0 | 0.00 | 0.00 | 0.00 | 39 | 1014.4 |
| 20260508171803 | 65 | 309 | 1.0 | 10.0 | 0.00 | 0.00 | 0.00 | 40 | 1013.9 |
| 20260508171604 | 65 | 300 | 1.0 | 10.0 | 0.00 | 0.00 | 0.00 | 38 | 1013.9 |
| 20260508171536 | 65 | 246 | 1.0 | 0.0 | 0.00 | 0.00 | 0.00 | 40 | 1014.4 |
| 20260508171404 | 65 | 264 | 2.0 | 6.0 | 0.00 | 0.00 | 0.00 | 40 | 1013.8 |
| 20260508171204 | 65 | 267 | 1.0 | 6.0 | 0.00 | 0.00 | 0.00 | 37 | 1013.8 |
| 20260508171004 | 66 | 268 | 2.0 | 12.0 | 0.00 | 0.00 | 0.00 | 40 | 1013.7 |
| 20260508170902 | 66 | 289 | 3.0 | 13.0 | 0.00 | 0.00 | 0.00 | 37 | 1014.2 |
| 20260508170603 | 67 | 295 | 1.0 | 11.0 | 0.00 | 0.00 | 0.00 | 36 | 1013.8 |
| 20260508170403 | 67 | 245 | 0.0 | 8.0 | 0.00 | 0.00 | 0.00 | 40 | 1014.3 |
| 20260508170203 | 66 | 296 | 2.0 | 8.0 | 0.00 | 0.00 | 0.00 | 37 | 1013.7 |
| 20260508170042 | 66 | 259 | 2.0 | 0.0 | 0.00 | 0.00 | 0.00 | 38 | 1014.3 |
| 20260508170005 | 66 | 299 | 2.0 | 0.0 | 0.00 | 0.00 | 0.00 | 38 | 1014.3 |
| 20260508170003 | 67 | 288 | 2.0 | 15.0 | 0.00 | 0.00 | 0.00 | 38 | 1013.8 |
| 20260508165903 | 67 | 253 | 3.0 | 15.0 | 0.00 | 0.00 | 0.00 | 37 | 1014.3 |
| 20260508165804 | 67 | 328 | 2.0 | 15.0 | 0.00 | 0.00 | 0.00 | 37 | 1013.9 |
| 20260508165603 | 67 | 294 | 3.0 | 7.0 | 0.00 | 0.00 | 0.00 | 40 | 1013.8 |
| 20260508165403 | 67 | 276 | 3.0 | 18.0 | 0.00 | 0.00 | 0.00 | 35 | 1013.9 |
| 20260508165004 | 66 | 262 | 2.0 | 13.0 | 0.00 | 0.00 | 0.00 | 40 | 1013.8 |
| 20260508164903 | 66 | 211 | 5.0 | 13.0 | 0.00 | 0.00 | 0.00 | 38 | 1014.3 |
| 20260508164803 | 66 | 305 | 2.0 | 13.0 | 0.00 | 0.00 | 0.00 | 39 | 1013.8 |
| 20260508164603 | 66 | 307 | 3.0 | 10.0 | 0.00 | 0.00 | 0.00 | 39 | 1013.9 |
| 20260508164548 | 65 | 304 | 3.0 | 0.0 | 0.00 | 0.00 | 0.00 | 39 | 1014.4 |
| 20260508164509 | 65 | 303 | 3.0 | 0.0 | 0.00 | 0.00 | 0.00 | 39 | 1014.4 |
| 20260508164403 | 65 | 171 | 1.0 | 8.0 | 0.00 | 0.00 | 0.00 | 44 | 1014.4 |
| 20260508164204 | 65 | 197 | 5.0 | 4.0 | 0.00 | 0.00 | 0.00 | 43 | 1013.9 |
| 20260508164004 | 64 | 298 | 5.0 | 13.0 | 0.00 | 0.00 | 0.00 | 44 | 1014.0 |
| 20260508163903 | 64 | 277 | 6.0 | 18.0 | 0.00 | 0.00 | 0.00 | 38 | 1014.4 |
| 20260508163804 | 64 | 306 | 5.0 | 18.0 | 0.00 | 0.00 | 0.00 | 40 | 1013.9 |
| 20260508163603 | 65 | 302 | 5.0 | 18.0 | 0.00 | 0.00 | 0.00 | 37 | 1014.0 |
| 20260508163403 | 65 | 295 | 8.0 | 18.0 | 0.00 | 0.00 | 0.00 | 44 | 1014.5 |
| 20260508163203 | 65 | 297 | 3.0 | 8.0 | 0.00 | 0.00 | 0.00 | 41 | 1014.0 |
| 20260508163113 | 64 | 254 | 3.0 | 0.0 | 0.00 | 0.00 | 0.00 | 47 | 1014.6 |
| 20260508163035 | 64 | 284 | 3.0 | 0.0 | 0.00 | 0.00 | 0.00 | 40 | 1014.6 |
| 20260508163004 | 64 | 300 | 4.0 | 10.0 | 0.00 | 0.00 | 0.00 | 40 | 1014.1 |
| 20260508162902 | 64 | 290 | 5.0 | 15.0 | 0.00 | 0.00 | 0.00 | 38 | 1014.6 |
| 20260508162603 | 64 | 288 | 3.0 | 13.0 | 0.00 | 0.00 | 0.00 | 44 | 1014.1 |
| 20260508162203 | 65 | 298 | 4.0 | 15.0 | 0.00 | 0.00 | 0.00 | 41 | 1014.1 |
| 20260508162003 | 64 | 271 | 3.0 | 11.0 | 0.00 | 0.00 | 0.00 | 40 | 1014.2 |
| 20260508161803 | 64 | 256 | 3.0 | 9.0 | 0.00 | 0.00 | 0.00 | 40 | 1014.2 |
| 20260508161558 | 63 | 286 | 3.0 | 0.0 | 0.00 | 0.00 | 0.00 | 40 | 1014.7 |
| 20260508161521 | 63 | 313 | 3.0 | 0.0 | 0.00 | 0.00 | 0.00 | 40 | 1014.8 |
| 20260508161403 | 64 | 269 | 3.0 | 11.0 | 0.00 | 0.00 | 0.00 | 44 | 1014.2 |
| 20260508161203 | 64 | 299 | 3.0 | 11.0 | 0.00 | 0.00 | 0.00 | 42 | 1014.2 |
| 20260508161003 | 64 | 300 | 3.0 | 11.0 | 0.00 | 0.00 | 0.00 | 40 | 1014.2 |
| 20260508160903 | 63 | 305 | 2.0 | 17.0 | 0.00 | 0.00 | 0.00 | 41 | 1014.8 |
| 20260508160804 | 64 | 282 | 3.0 | 9.0 | 0.00 | 0.00 | 0.00 | 43 | 1014.2 |
| 20260508160604 | 64 | 297 | 3.0 | 17.0 | 0.00 | 0.00 | 0.00 | 37 | 1014.3 |
| 20260508160403 | 64 | 314 | 2.0 | 12.0 | 0.00 | 0.00 | 0.00 | 46 | 1014.8 |
| 20260508160204 | 63 | 308 | 3.0 | 11.0 | 0.00 | 0.00 | 0.00 | 44 | 1014.3 |
| 20260508160027 | 63 | 53 | 4.0 | 0.0 | 0.00 | 0.00 | 0.00 | 41 | 1014.8 |
| 20260508160003 | 63 | 293 | 3.0 | 12.0 | 0.00 | 0.00 | 0.00 | 41 | 1014.2 |
| 20260508155903 | 63 | 244 | 3.0 | 15.0 | 0.00 | 0.00 | 0.00 | 42 | 1014.9 |
| 20260508155604 | 63 | 307 | 4.0 | 15.0 | 0.00 | 0.00 | 0.00 | 39 | 1014.3 |
| 20260508155203 | 63 | 240 | 3.0 | 20.0 | 0.00 | 0.00 | 0.00 | 42 | 1014.4 |
| 20260508155004 | 63 | 316 | 3.0 | 22.0 | 0.00 | 0.00 | 0.00 | 46 | 1014.4 |
| 20260508154903 | 63 | 327 | 7.0 | 22.0 | 0.00 | 0.00 | 0.00 | 43 | 1015.0 |
| 20260508154803 | 63 | 319 | 3.0 | 22.0 | 0.00 | 0.00 | 0.00 | 43 | 1014.4 |
| 20260508154604 | 63 | 291 | 3.0 | 8.0 | 0.00 | 0.00 | 0.00 | 45 | 1014.5 |
| 20260508154533 | 62 | 315 | 3.0 | 0.0 | 0.00 | 0.00 | 0.00 | 45 | 1015.0 |
| 20260508154404 | 63 | 290 | 4.0 | 15.0 | 0.00 | 0.00 | 0.00 | 41 | 1014.6 |
| 20260508154402 | 63 | 310 | 5.0 | 15.0 | 0.00 | 0.00 | 0.00 | 40 | 1015.1 |
| 20260508154203 | 62 | 268 | 3.0 | 13.0 | 0.00 | 0.00 | 0.00 | 42 | 1014.6 |
| 20260508154003 | 62 | 258 | 3.0 | 13.0 | 0.00 | 0.00 | 0.00 | 43 | 1014.6 |
| 20260508153903 | 62 | 254 | 2.0 | 10.0 | 0.00 | 0.00 | 0.00 | 44 | 1015.1 |
| 20260508153604 | 62 | 289 | 3.0 | 10.0 | 0.00 | 0.00 | 0.00 | 43 | 1014.6 |
| 20260508153403 | 62 | 293 | 3.0 | 10.0 | 0.00 | 0.00 | 0.00 | 41 | 1014.7 |
| 20260508153045 | 62 | 11 | 2.0 | 0.0 | 0.00 | 0.00 | 0.00 | 44 | 1015.3 |
| 20260508153022 | 62 | 10 | 2.0 | 0.0 | 0.00 | 0.00 | 0.00 | 44 | 1015.3 |
| 20260508153004 | 62 | 250 | 2.0 | 13.0 | 0.00 | 0.00 | 0.00 | 39 | 1014.7 |
| 20260508152903 | 62 | 279 | 6.0 | 13.0 | 0.00 | 0.00 | 0.00 | 42 | 1015.3 |
| 20260508152404 | 62 | 304 | 1.0 | 5.0 | 0.00 | 0.00 | 0.00 | 46 | 1014.7 |
| 20260508152203 | 62 | 271 | 2.0 | 11.0 | 0.00 | 0.00 | 0.00 | 45 | 1014.7 |
| 20260508152003 | 62 | 257 | 1.0 | 11.0 | 0.00 | 0.00 | 0.00 | 41 | 1014.8 |
| 20260508151903 | 62 | 260 | 1.0 | 9.0 | 0.00 | 0.00 | 0.00 | 44 | 1015.4 |
| 20260508151803 | 62 | 251 | 2.0 | 9.0 | 0.00 | 0.00 | 0.00 | 43 | 1014.8 |
| 20260508151605 | 62 | 228 | 2.0 | 9.0 | 0.00 | 0.00 | 0.00 | 46 | 1014.8 |
| 20260508151548 | 61 | 219 | 2.0 | 0.0 | 0.00 | 0.00 | 0.00 | 46 | 1015.4 |
| 20260508151521 | 61 | 215 | 2.0 | 0.0 | 0.00 | 0.00 | 0.00 | 42 | 1015.4 |
| 20260508151403 | 62 | 288 | 2.0 | 15.0 | 0.00 | 0.00 | 0.00 | 44 | 1015.4 |
| 20260508151203 | 62 | 302 | 1.0 | 15.0 | 0.00 | 0.00 | 0.00 | 43 | 1014.9 |
| 20260508151004 | 62 | 290 | 1.0 | 8.0 | 0.00 | 0.00 | 0.00 | 46 | 1014.9 |
| 20260508150903 | 62 | 261 | 2.0 | 9.0 | 0.00 | 0.00 | 0.00 | 44 | 1015.5 |
| 20260508150403 | 61 | 346 | 1.0 | 5.0 | 0.00 | 0.00 | 0.00 | 42 | 1014.9 |
| 20260508150204 | 61 | 312 | 1.0 | 8.0 | 0.00 | 0.00 | 0.00 | 42 | 1015.0 |
| 20260508150056 | 61 | 316 | 1.0 | 0.0 | 0.00 | 0.00 | 0.00 | 45 | 1015.5 |
| 20260508150026 | 61 | 301 | 1.0 | 0.0 | 0.00 | 0.00 | 0.00 | 45 | 1015.5 |
| 20260508150003 | 61 | 287 | 1.0 | 7.0 | 0.00 | 0.00 | 0.00 | 45 | 1015.0 |
| 20260508145803 | 61 | 0 | 0.0 | 4.0 | 0.00 | 0.00 | 0.00 | 47 | 1015.0 |
| 20260508145605 | 61 | 289 | 1.0 | 6.0 | 0.00 | 0.00 | 0.00 | 46 | 1015.0 |
| 20260508145404 | 61 | 285 | 1.0 | 6.0 | 0.00 | 0.00 | 0.00 | 42 | 1015.0 |
| 20260508145203 | 61 | 239 | 1.0 | 5.0 | 0.00 | 0.00 | 0.00 | 43 | 1015.0 |
| 20260508145004 | 61 | 0 | 0.0 | 5.0 | 0.00 | 0.00 | 0.00 | 47 | 1014.9 |
| 20260508144803 | 60 | 0 | 0.0 | 6.0 | 0.00 | 0.00 | 0.00 | 46 | 1014.9 |
| 20260508144603 | 60 | 0 | 0.0 | 6.0 | 0.00 | 0.00 | 0.00 | 47 | 1015.0 |
| 20260508144533 | 60 | 241 | 0.0 | 0.0 | 0.00 | 0.00 | 0.00 | 52 | 1015.5 |
| 20260508144403 | 60 | 330 | 1.0 | 6.0 | 0.00 | 0.00 | 0.00 | 48 | 1015.1 |
| 20260508144204 | 59 | 301 | 1.0 | 7.0 | 0.00 | 0.00 | 0.00 | 48 | 1015.0 |
| 20260508143903 | 59 | 276 | 1.0 | 12.0 | 0.00 | 0.00 | 0.00 | 47 | 1015.7 |
| 20260508143803 | 59 | 298 | 1.0 | 4.0 | 0.00 | 0.00 | 0.00 | 47 | 1015.1 |
| 20260508143603 | 59 | 289 | 1.0 | 11.0 | 0.00 | 0.00 | 0.00 | 46 | 1015.1 |
| 20260508143403 | 59 | 197 | 1.0 | 7.0 | 0.00 | 0.00 | 0.00 | 47 | 1015.8 |
| 20260508143034 | 58 | 290 | 2.0 | 0.0 | 0.00 | 0.00 | 0.00 | 48 | 1015.7 |
| 20260508143004 | 58 | 310 | 2.0 | 4.0 | 0.00 | 0.00 | 0.00 | 45 | 1015.1 |
| 20260508142903 | 58 | 307 | 1.0 | 12.0 | 0.00 | 0.00 | 0.00 | 46 | 1015.7 |
| 20260508142803 | 58 | 301 | 1.0 | 5.0 | 0.00 | 0.00 | 0.00 | 47 | 1015.2 |
| 20260508142603 | 58 | 304 | 1.0 | 12.0 | 0.00 | 0.00 | 0.00 | 44 | 1015.2 |
| 20260508142405 | 58 | 304 | 1.0 | 12.0 | 0.00 | 0.00 | 0.00 | 44 | 1015.2 |
| 20260508142204 | 58 | 0 | 0.0 | 7.0 | 0.00 | 0.00 | 0.00 | 45 | 1015.2 |
| 20260508142003 | 58 | 0 | 0.0 | 3.0 | 0.00 | 0.00 | 0.00 | 49 | 1015.2 |
| 20260508141903 | 57 | 47 | 0.0 | 6.0 | 0.00 | 0.00 | 0.00 | 52 | 1015.8 |
| 20260508141803 | 57 | 0 | 0.0 | 3.0 | 0.00 | 0.00 | 0.00 | 52 | 1015.2 |
| 20260508141603 | 57 | 0 | 0.0 | 6.0 | 0.00 | 0.00 | 0.00 | 50 | 1015.3 |
| 20260508141540 | 56 | 110 | 0.0 | 0.0 | 0.00 | 0.00 | 0.00 | 50 | 1015.8 |
| 20260508141504 | 56 | 329 | 0.0 | 0.0 | 0.00 | 0.00 | 0.00 | 52 | 1015.8 |
| 20260508141404 | 56 | 0 | 0.0 | 3.0 | 0.00 | 0.00 | 0.00 | 51 | 1015.3 |
| 20260508141203 | 56 | 0 | 0.0 | 4.0 | 0.00 | 0.00 | 0.00 | 49 | 1015.3 |
| 20260508140904 | 56 | 266 | 0.0 | 3.0 | 0.00 | 0.00 | 0.00 | 53 | 1015.8 |
| 20260508140203 | 55 | 0 | 0.0 | 3.0 | 0.00 | 0.00 | 0.00 | 49 | 1015.3 |
| 20260508140049 | 55 | 201 | 0.0 | 0.0 | 0.00 | 0.00 | 0.00 | 51 | 1016.0 |
| 20260508140013 | 55 | 269 | 0.0 | 0.0 | 0.00 | 0.00 | 0.00 | 55 | 1016.0 |
| 20260508140004 | 55 | 0 | 0.0 | 3.0 | 0.00 | 0.00 | 0.00 | 55 | 1015.4 |
| 20260508135903 | 55 | 140 | 0.0 | 1.0 | 0.00 | 0.00 | 0.00 | 52 | 1016.0 |
| 20260508135604 | 55 | 0 | 0.0 | 0.0 | 0.00 | 0.00 | 0.00 | 53 | 1015.4 |
| 20260508135405 | 55 | 0 | 0.0 | 0.0 | 0.00 | 0.00 | 0.00 | 54 | 1015.4 |
| 20260508135203 | 55 | 0 | 0.0 | 2.0 | 0.00 | 0.00 | 0.00 | 55 | 1015.5 |
| 20260508135003 | 55 | 0 | 0.0 | 4.0 | 0.00 | 0.00 | 0.00 | 49 | 1015.4 |
| 20260508134902 | 55 | 239 | 1.0 | 3.0 | 0.00 | 0.00 | 0.00 | 49 | 1016.1 |
| 20260508134805 | 55 | 0 | 0.0 | 4.0 | 0.00 | 0.00 | 0.00 | 51 | 1015.4 |
| 20260508134604 | 55 | 0 | 0.0 | 0.0 | 0.00 | 0.00 | 0.00 | 53 | 1015.4 |
| 20260508134602 | 54 | 145 | 0.0 | 0.0 | 0.00 | 0.00 | 0.00 | 53 | 1016.1 |
| 20260508134525 | 54 | 146 | 0.0 | 0.0 | 0.00 | 0.00 | 0.00 | 55 | 1016.1 |
| 20260508134403 | 55 | 0 | 0.0 | 0.0 | 0.00 | 0.00 | 0.00 | 54 | 1015.5 |
| 20260508134204 | 55 | 0 | 0.0 | 0.0 | 0.00 | 0.00 | 0.00 | 53 | 1015.4 |
| 20260508134003 | 55 | 0 | 0.0 | 0.0 | 0.00 | 0.00 | 0.00 | 54 | 1015.4 |
| 20260508133903 | 55 | 299 | 0.0 | 2.0 | 0.00 | 0.00 | 0.00 | 51 | 1016.1 |
| 20260508133803 | 54 | 0 | 0.0 | 2.0 | 0.00 | 0.00 | 0.00 | 52 | 1015.5 |
| 20260508133403 | 54 | 3 | 0.0 | 0.0 | 0.00 | 0.00 | 0.00 | 57 | 1016.2 |
| 20260508133205 | 54 | 0 | 0.0 | 0.0 | 0.00 | 0.00 | 0.00 | 53 | 1015.5 |
| 20260508133034 | 54 | 5 | 0.0 | 0.0 | 0.00 | 0.00 | 0.00 | 55 | 1016.2 |
| 20260508133003 | 54 | 0 | 0.0 | 1.0 | 0.00 | 0.00 | 0.00 | 52 | 1015.5 |
| 20260508132903 | 54 | 2 | 0.0 | 1.0 | 0.00 | 0.00 | 0.00 | 58 | 1016.2 |
| 20260508132803 | 54 | 0 | 0.0 | 1.0 | 0.00 | 0.00 | 0.00 | 59 | 1015.5 |
| 20260508132603 | 54 | 0 | 0.0 | 7.0 | 0.00 | 0.00 | 0.00 | 53 | 1015.5 |
| 20260508132203 | 53 | 0 | 0.0 | 0.0 | 0.00 | 0.00 | 0.00 | 56 | 1015.5 |
| 20260508132004 | 53 | 0 | 0.0 | 2.0 | 0.00 | 0.00 | 0.00 | 55 | 1015.5 |
| 20260508131903 | 53 | 304 | 0.0 | 2.0 | 0.00 | 0.00 | 0.00 | 55 | 1016.2 |
| 20260508131804 | 53 | 0 | 0.0 | 2.0 | 0.00 | 0.00 | 0.00 | 56 | 1015.5 |
| 20260508131603 | 53 | 0 | 0.0 | 2.0 | 0.00 | 0.00 | 0.00 | 54 | 1015.5 |
| 20260508131550 | 52 | 307 | 0.0 | 0.0 | 0.00 | 0.00 | 0.00 | 53 | 1016.2 |
| 20260508131503 | 52 | 307 | 0.0 | 0.0 | 0.00 | 0.00 | 0.00 | 53 | 1016.2 |
| 20260508131404 | 53 | 0 | 0.0 | 2.0 | 0.00 | 0.00 | 0.00 | 55 | 1015.5 |
| 20260508131203 | 52 | 0 | 0.0 | 0.0 | 0.00 | 0.00 | 0.00 | 58 | 1015.5 |
| 20260508131003 | 52 | 0 | 0.0 | 7.0 | 0.00 | 0.00 | 0.00 | 54 | 1015.5 |
| 20260508130904 | 52 | 274 | 1.0 | 7.0 | 0.00 | 0.00 | 0.00 | 54 | 1016.2 |
| 20260508130804 | 52 | 0 | 0.0 | 7.0 | 0.00 | 0.00 | 0.00 | 55 | 1015.5 |
| 20260508130603 | 51 | 0 | 0.0 | 5.0 | 0.00 | 0.00 | 0.00 | 55 | 1015.5 |
| 20260508130403 | 51 | 328 | 0.0 | 1.0 | 0.00 | 0.00 | 0.00 | 58 | 1016.2 |
| 20260508130204 | 51 | 0 | 0.0 | 1.0 | 0.00 | 0.00 | 0.00 | 58 | 1015.5 |
| 20260508130104 | 50 | 335 | 0.0 | 0.0 | 0.00 | 0.00 | 0.00 | 60 | 1016.2 |
| 20260508130015 | 50 | 334 | 0.0 | 0.0 | 0.00 | 0.00 | 0.00 | 62 | 1016.2 |
| 20260508130004 | 51 | 0 | 0.0 | 0.0 | 0.00 | 0.00 | 0.00 | 62 | 1015.6 |
| 20260508125903 | 51 | 288 | 0.0 | 5.0 | 0.00 | 0.00 | 0.00 | 62 | 1016.2 |
| 20260508125604 | 50 | 288 | 1.0 | 5.0 | 0.00 | 0.00 | 0.00 | 58 | 1015.5 |
| 20260508125405 | 50 | 300 | 1.0 | 7.0 | 0.00 | 0.00 | 0.00 | 57 | 1015.6 |
| 20260508125203 | 50 | 299 | 1.0 | 7.0 | 0.00 | 0.00 | 0.00 | 58 | 1015.6 |
| 20260508125003 | 50 | 250 | 1.0 | 3.0 | 0.00 | 0.00 | 0.00 | 60 | 1015.5 |
| 20260508124903 | 50 | 235 | 0.0 | 3.0 | 0.00 | 0.00 | 0.00 | 60 | 1016.2 |
| 20260508124604 | 50 | 321 | 1.0 | 4.0 | 0.00 | 0.00 | 0.00 | 62 | 1015.5 |
| 20260508124556 | 49 | 321 | 1.0 | 0.0 | 0.00 | 0.00 | 0.00 | 62 | 1016.2 |
| 20260508124519 | 49 | 322 | 1.0 | 0.0 | 0.00 | 0.00 | 0.00 | 62 | 1016.3 |
| 20260508124403 | 50 | 310 | 1.0 | 5.0 | 0.00 | 0.00 | 0.00 | 61 | 1015.6 |
| 20260508124203 | 49 | 0 | 0.0 | 5.0 | 0.00 | 0.00 | 0.00 | 60 | 1015.7 |